<?xml version="1.0" encoding="UTF-8" standalone="no" ?>
<gpx xmlns="http://www.topografix.com/GPX/1/1" xmlns:xsi="http://www.w3.org/2001/XMLSchema-instance" xsi:schemaLocation="http://www.topografix.com/GPX/1/1 http://www.topografix.com/GPX/1/1/gpx.xsd" version="1.1" creator="VisuGPX - https://www.visugpx.com">
  <metadata>
    <name>Rando Barre des Cévennes</name>
    <desc><![CDATA[Vue incroyable ! ]]></desc>
  </metadata>
  <trk>
    <name><![CDATA[Rando Barre des Cévennes_1]]></name>
    <trkseg>
      <trkpt lat="44.24625" lon="3.65154">
        <ele>910.2</ele>
        <time>2022-08-10T08:39:37Z</time>
      </trkpt>
      <trkpt lat="44.24624" lon="3.65151">
        <ele>910</ele>
        <time>2022-08-10T08:39:51Z</time>
      </trkpt>
      <trkpt lat="44.24621" lon="3.65145">
        <ele>910.2</ele>
        <time>2022-08-10T08:40:00Z</time>
      </trkpt>
      <trkpt lat="44.24618" lon="3.65143">
        <ele>910.2</ele>
        <time>2022-08-10T08:40:03Z</time>
      </trkpt>
      <trkpt lat="44.24617" lon="3.65142">
        <ele>910.2</ele>
        <time>2022-08-10T08:40:05Z</time>
      </trkpt>
      <trkpt lat="44.24612" lon="3.65143">
        <ele>909.8</ele>
        <time>2022-08-10T08:40:09Z</time>
      </trkpt>
      <trkpt lat="44.24609" lon="3.65146">
        <ele>909.2</ele>
        <time>2022-08-10T08:40:13Z</time>
      </trkpt>
      <trkpt lat="44.24606" lon="3.65148">
        <ele>909.2</ele>
        <time>2022-08-10T08:40:17Z</time>
      </trkpt>
      <trkpt lat="44.24604" lon="3.65151">
        <ele>909</ele>
        <time>2022-08-10T08:40:22Z</time>
      </trkpt>
      <trkpt lat="44.24604" lon="3.6515">
        <ele>909.8</ele>
        <time>2022-08-10T08:40:34Z</time>
      </trkpt>
      <trkpt lat="44.24607" lon="3.6515">
        <ele>909.2</ele>
        <time>2022-08-10T08:40:47Z</time>
      </trkpt>
      <trkpt lat="44.24612" lon="3.65148">
        <ele>910</ele>
        <time>2022-08-10T08:40:59Z</time>
      </trkpt>
      <trkpt lat="44.2462" lon="3.65147">
        <ele>910.2</ele>
        <time>2022-08-10T08:41:10Z</time>
      </trkpt>
      <trkpt lat="44.2462" lon="3.65147">
        <ele>910.2</ele>
        <time>2022-08-10T08:41:11Z</time>
      </trkpt>
      <trkpt lat="44.24621" lon="3.65153">
        <ele>910</ele>
        <time>2022-08-10T08:41:19Z</time>
      </trkpt>
      <trkpt lat="44.2462" lon="3.65153">
        <ele>909.4</ele>
        <time>2022-08-10T08:41:22Z</time>
      </trkpt>
      <trkpt lat="44.24619" lon="3.65154">
        <ele>909.2</ele>
        <time>2022-08-10T08:41:25Z</time>
      </trkpt>
      <trkpt lat="44.24619" lon="3.65155">
        <ele>908.6</ele>
        <time>2022-08-10T08:41:28Z</time>
      </trkpt>
      <trkpt lat="44.24618" lon="3.65154">
        <ele>908</ele>
        <time>2022-08-10T08:41:33Z</time>
      </trkpt>
      <trkpt lat="44.24621" lon="3.65153">
        <ele>908.4</ele>
        <time>2022-08-10T08:41:46Z</time>
      </trkpt>
      <trkpt lat="44.24621" lon="3.65153">
        <ele>910</ele>
        <time>2022-08-10T08:41:51Z</time>
      </trkpt>
      <trkpt lat="44.24621" lon="3.65154">
        <ele>909.8</ele>
        <time>2022-08-10T08:41:58Z</time>
      </trkpt>
      <trkpt lat="44.24622" lon="3.65153">
        <ele>909.8</ele>
        <time>2022-08-10T08:42:09Z</time>
      </trkpt>
      <trkpt lat="44.24623" lon="3.65153">
        <ele>909.8</ele>
        <time>2022-08-10T08:42:24Z</time>
      </trkpt>
      <trkpt lat="44.24624" lon="3.65152">
        <ele>909.6</ele>
        <time>2022-08-10T08:42:37Z</time>
      </trkpt>
      <trkpt lat="44.2462" lon="3.65152">
        <ele>909.6</ele>
        <time>2022-08-10T08:42:51Z</time>
      </trkpt>
      <trkpt lat="44.24616" lon="3.65154">
        <ele>909.4</ele>
        <time>2022-08-10T08:43:10Z</time>
      </trkpt>
      <trkpt lat="44.24621" lon="3.65154">
        <ele>909.6</ele>
        <time>2022-08-10T08:43:20Z</time>
      </trkpt>
      <trkpt lat="44.24624" lon="3.65151">
        <ele>910</ele>
        <time>2022-08-10T08:43:30Z</time>
      </trkpt>
      <trkpt lat="44.2463" lon="3.65151">
        <ele>910</ele>
        <time>2022-08-10T08:43:39Z</time>
      </trkpt>
      <trkpt lat="44.24631" lon="3.65152">
        <ele>910</ele>
        <time>2022-08-10T08:43:40Z</time>
      </trkpt>
      <trkpt lat="44.24632" lon="3.65152">
        <ele>909.8</ele>
        <time>2022-08-10T08:43:41Z</time>
      </trkpt>
      <trkpt lat="44.24633" lon="3.65152">
        <ele>909.8</ele>
        <time>2022-08-10T08:43:43Z</time>
      </trkpt>
      <trkpt lat="44.24638" lon="3.6516">
        <ele>911</ele>
        <time>2022-08-10T08:43:51Z</time>
      </trkpt>
      <trkpt lat="44.24637" lon="3.65161">
        <ele>911.2</ele>
        <time>2022-08-10T08:43:52Z</time>
      </trkpt>
      <trkpt lat="44.24634" lon="3.65173">
        <ele>912.2</ele>
        <time>2022-08-10T08:44:01Z</time>
      </trkpt>
      <trkpt lat="44.24633" lon="3.65174">
        <ele>912.2</ele>
        <time>2022-08-10T08:44:02Z</time>
      </trkpt>
      <trkpt lat="44.24622" lon="3.6519">
        <ele>912.2</ele>
        <time>2022-08-10T08:44:15Z</time>
      </trkpt>
      <trkpt lat="44.24608" lon="3.65201">
        <ele>913</ele>
        <time>2022-08-10T08:44:27Z</time>
      </trkpt>
      <trkpt lat="44.24602" lon="3.65203">
        <ele>913.2</ele>
        <time>2022-08-10T08:44:32Z</time>
      </trkpt>
      <trkpt lat="44.24599" lon="3.65203">
        <ele>913</ele>
        <time>2022-08-10T08:44:37Z</time>
      </trkpt>
      <trkpt lat="44.24597" lon="3.65202">
        <ele>913.8</ele>
        <time>2022-08-10T08:44:47Z</time>
      </trkpt>
      <trkpt lat="44.24602" lon="3.65203">
        <ele>912.8</ele>
        <time>2022-08-10T08:45:04Z</time>
      </trkpt>
      <trkpt lat="44.24598" lon="3.65209">
        <ele>913.2</ele>
        <time>2022-08-10T08:45:14Z</time>
      </trkpt>
      <trkpt lat="44.24598" lon="3.65212">
        <ele>913.2</ele>
        <time>2022-08-10T08:45:23Z</time>
      </trkpt>
      <trkpt lat="44.24598" lon="3.65217">
        <ele>913.2</ele>
        <time>2022-08-10T08:45:34Z</time>
      </trkpt>
      <trkpt lat="44.24599" lon="3.65223">
        <ele>913.4</ele>
        <time>2022-08-10T08:45:40Z</time>
      </trkpt>
      <trkpt lat="44.24602" lon="3.65225">
        <ele>913</ele>
        <time>2022-08-10T08:45:47Z</time>
      </trkpt>
      <trkpt lat="44.24603" lon="3.65224">
        <ele>913.2</ele>
        <time>2022-08-10T08:46:01Z</time>
      </trkpt>
      <trkpt lat="44.246" lon="3.6522">
        <ele>913.2</ele>
        <time>2022-08-10T08:46:16Z</time>
      </trkpt>
      <trkpt lat="44.246" lon="3.6522">
        <ele>913.2</ele>
        <time>2022-08-10T08:46:34Z</time>
      </trkpt>
      <trkpt lat="44.24601" lon="3.65219">
        <ele>914.2</ele>
        <time>2022-08-10T08:46:46Z</time>
      </trkpt>
      <trkpt lat="44.24601" lon="3.65219">
        <ele>913.2</ele>
        <time>2022-08-10T08:46:48Z</time>
      </trkpt>
      <trkpt lat="44.24601" lon="3.65218">
        <ele>913.2</ele>
        <time>2022-08-10T08:46:52Z</time>
      </trkpt>
      <trkpt lat="44.24599" lon="3.65217">
        <ele>913.2</ele>
        <time>2022-08-10T08:47:03Z</time>
      </trkpt>
      <trkpt lat="44.24596" lon="3.65217">
        <ele>913.4</ele>
        <time>2022-08-10T08:47:17Z</time>
      </trkpt>
      <trkpt lat="44.24596" lon="3.65217">
        <ele>912.6</ele>
        <time>2022-08-10T08:47:36Z</time>
      </trkpt>
      <trkpt lat="44.24596" lon="3.65222">
        <ele>913.2</ele>
        <time>2022-08-10T08:48:00Z</time>
      </trkpt>
      <trkpt lat="44.24596" lon="3.65216">
        <ele>912.6</ele>
        <time>2022-08-10T08:48:15Z</time>
      </trkpt>
      <trkpt lat="44.24591" lon="3.65209">
        <ele>913.4</ele>
        <time>2022-08-10T08:48:35Z</time>
      </trkpt>
      <trkpt lat="44.24589" lon="3.6521">
        <ele>913.2</ele>
        <time>2022-08-10T08:48:52Z</time>
      </trkpt>
      <trkpt lat="44.24586" lon="3.65209">
        <ele>914.2</ele>
        <time>2022-08-10T08:48:59Z</time>
      </trkpt>
      <trkpt lat="44.24585" lon="3.65209">
        <ele>914.4</ele>
        <time>2022-08-10T08:49:06Z</time>
      </trkpt>
      <trkpt lat="44.24585" lon="3.65209">
        <ele>913.6</ele>
        <time>2022-08-10T08:49:23Z</time>
      </trkpt>
      <trkpt lat="44.24586" lon="3.65207">
        <ele>913.6</ele>
        <time>2022-08-10T08:49:40Z</time>
      </trkpt>
      <trkpt lat="44.24582" lon="3.65208">
        <ele>913.2</ele>
        <time>2022-08-10T08:49:55Z</time>
      </trkpt>
      <trkpt lat="44.24582" lon="3.65208">
        <ele>913.2</ele>
        <time>2022-08-10T08:49:56Z</time>
      </trkpt>
      <trkpt lat="44.2458" lon="3.65209">
        <ele>913.2</ele>
        <time>2022-08-10T08:49:58Z</time>
      </trkpt>
      <trkpt lat="44.24577" lon="3.65212">
        <ele>913.2</ele>
        <time>2022-08-10T08:50:01Z</time>
      </trkpt>
      <trkpt lat="44.24571" lon="3.65226">
        <ele>912.8</ele>
        <time>2022-08-10T08:50:09Z</time>
      </trkpt>
      <trkpt lat="44.24558" lon="3.65244">
        <ele>913</ele>
        <time>2022-08-10T08:50:24Z</time>
      </trkpt>
      <trkpt lat="44.24556" lon="3.65245">
        <ele>913.2</ele>
        <time>2022-08-10T08:50:29Z</time>
      </trkpt>
      <trkpt lat="44.24558" lon="3.65247">
        <ele>913.2</ele>
        <time>2022-08-10T08:50:36Z</time>
      </trkpt>
      <trkpt lat="44.24556" lon="3.65253">
        <ele>912.8</ele>
        <time>2022-08-10T08:50:42Z</time>
      </trkpt>
      <trkpt lat="44.24554" lon="3.65256">
        <ele>913</ele>
        <time>2022-08-10T08:50:45Z</time>
      </trkpt>
      <trkpt lat="44.24553" lon="3.65258">
        <ele>913.2</ele>
        <time>2022-08-10T08:50:47Z</time>
      </trkpt>
      <trkpt lat="44.24549" lon="3.6526">
        <ele>912.2</ele>
        <time>2022-08-10T08:50:55Z</time>
      </trkpt>
      <trkpt lat="44.24551" lon="3.6526">
        <ele>912.2</ele>
        <time>2022-08-10T08:51:00Z</time>
      </trkpt>
      <trkpt lat="44.2456" lon="3.65259">
        <ele>913</ele>
        <time>2022-08-10T08:51:18Z</time>
      </trkpt>
      <trkpt lat="44.24564" lon="3.6526">
        <ele>912.2</ele>
        <time>2022-08-10T08:51:32Z</time>
      </trkpt>
      <trkpt lat="44.24562" lon="3.65259">
        <ele>911</ele>
        <time>2022-08-10T08:51:37Z</time>
      </trkpt>
      <trkpt lat="44.24556" lon="3.65259">
        <ele>910.6</ele>
        <time>2022-08-10T08:51:39Z</time>
      </trkpt>
      <trkpt lat="44.24553" lon="3.65258">
        <ele>909.8</ele>
        <time>2022-08-10T08:51:44Z</time>
      </trkpt>
      <trkpt lat="44.24547" lon="3.65248">
        <ele>909.8</ele>
        <time>2022-08-10T08:51:53Z</time>
      </trkpt>
      <trkpt lat="44.24545" lon="3.65245">
        <ele>909.8</ele>
        <time>2022-08-10T08:52:01Z</time>
      </trkpt>
      <trkpt lat="44.24541" lon="3.65241">
        <ele>909.2</ele>
        <time>2022-08-10T08:52:05Z</time>
      </trkpt>
      <trkpt lat="44.2454" lon="3.6524">
        <ele>909.2</ele>
        <time>2022-08-10T08:52:06Z</time>
      </trkpt>
      <trkpt lat="44.24538" lon="3.65237">
        <ele>908.8</ele>
        <time>2022-08-10T08:52:09Z</time>
      </trkpt>
      <trkpt lat="44.24534" lon="3.65234">
        <ele>907.8</ele>
        <time>2022-08-10T08:52:14Z</time>
      </trkpt>
      <trkpt lat="44.24533" lon="3.65233">
        <ele>907.6</ele>
        <time>2022-08-10T08:52:15Z</time>
      </trkpt>
      <trkpt lat="44.24532" lon="3.65233">
        <ele>907.4</ele>
        <time>2022-08-10T08:52:17Z</time>
      </trkpt>
      <trkpt lat="44.24531" lon="3.65233">
        <ele>907.6</ele>
        <time>2022-08-10T08:52:19Z</time>
      </trkpt>
      <trkpt lat="44.24531" lon="3.65232">
        <ele>907.6</ele>
        <time>2022-08-10T08:52:25Z</time>
      </trkpt>
      <trkpt lat="44.24527" lon="3.65227">
        <ele>907.8</ele>
        <time>2022-08-10T08:53:36Z</time>
      </trkpt>
      <trkpt lat="44.24524" lon="3.65228">
        <ele>907.2</ele>
        <time>2022-08-10T08:53:41Z</time>
      </trkpt>
      <trkpt lat="44.2452" lon="3.6523">
        <ele>906.8</ele>
        <time>2022-08-10T08:53:53Z</time>
      </trkpt>
      <trkpt lat="44.24517" lon="3.65234">
        <ele>907</ele>
        <time>2022-08-10T08:54:04Z</time>
      </trkpt>
      <trkpt lat="44.24512" lon="3.6524">
        <ele>906.8</ele>
        <time>2022-08-10T08:54:11Z</time>
      </trkpt>
      <trkpt lat="44.24511" lon="3.65243">
        <ele>906.8</ele>
        <time>2022-08-10T08:54:14Z</time>
      </trkpt>
      <trkpt lat="44.2451" lon="3.65245">
        <ele>906.8</ele>
        <time>2022-08-10T08:54:17Z</time>
      </trkpt>
      <trkpt lat="44.24509" lon="3.65246">
        <ele>906.8</ele>
        <time>2022-08-10T08:54:18Z</time>
      </trkpt>
      <trkpt lat="44.24509" lon="3.65248">
        <ele>907</ele>
        <time>2022-08-10T08:54:19Z</time>
      </trkpt>
      <trkpt lat="44.24503" lon="3.65258">
        <ele>907.8</ele>
        <time>2022-08-10T08:54:31Z</time>
      </trkpt>
      <trkpt lat="44.24499" lon="3.65262">
        <ele>908.2</ele>
        <time>2022-08-10T08:54:41Z</time>
      </trkpt>
      <trkpt lat="44.24497" lon="3.65267">
        <ele>908</ele>
        <time>2022-08-10T08:54:50Z</time>
      </trkpt>
      <trkpt lat="44.24488" lon="3.6528">
        <ele>907.4</ele>
        <time>2022-08-10T08:55:02Z</time>
      </trkpt>
      <trkpt lat="44.24485" lon="3.65286">
        <ele>907.2</ele>
        <time>2022-08-10T08:55:09Z</time>
      </trkpt>
      <trkpt lat="44.24482" lon="3.65289">
        <ele>907.2</ele>
        <time>2022-08-10T08:55:13Z</time>
      </trkpt>
      <trkpt lat="44.24476" lon="3.65298">
        <ele>907.2</ele>
        <time>2022-08-10T08:55:26Z</time>
      </trkpt>
      <trkpt lat="44.24475" lon="3.653">
        <ele>907.2</ele>
        <time>2022-08-10T08:55:37Z</time>
      </trkpt>
      <trkpt lat="44.2447" lon="3.65304">
        <ele>907.8</ele>
        <time>2022-08-10T08:55:51Z</time>
      </trkpt>
      <trkpt lat="44.24468" lon="3.65309">
        <ele>908.2</ele>
        <time>2022-08-10T08:55:56Z</time>
      </trkpt>
      <trkpt lat="44.24466" lon="3.65312">
        <ele>908.4</ele>
        <time>2022-08-10T08:55:58Z</time>
      </trkpt>
      <trkpt lat="44.24463" lon="3.6532">
        <ele>908.6</ele>
        <time>2022-08-10T08:56:05Z</time>
      </trkpt>
      <trkpt lat="44.24461" lon="3.65323">
        <ele>908.8</ele>
        <time>2022-08-10T08:56:07Z</time>
      </trkpt>
      <trkpt lat="44.24452" lon="3.65333">
        <ele>909.2</ele>
        <time>2022-08-10T08:56:19Z</time>
      </trkpt>
      <trkpt lat="44.24442" lon="3.65338">
        <ele>909.4</ele>
        <time>2022-08-10T08:56:31Z</time>
      </trkpt>
      <trkpt lat="44.2444" lon="3.65339">
        <ele>909.4</ele>
        <time>2022-08-10T08:56:35Z</time>
      </trkpt>
      <trkpt lat="44.24434" lon="3.65344">
        <ele>909.4</ele>
        <time>2022-08-10T08:56:46Z</time>
      </trkpt>
      <trkpt lat="44.24439" lon="3.65348">
        <ele>909.8</ele>
        <time>2022-08-10T08:56:56Z</time>
      </trkpt>
      <trkpt lat="44.2444" lon="3.65356">
        <ele>909.6</ele>
        <time>2022-08-10T08:57:15Z</time>
      </trkpt>
      <trkpt lat="44.24434" lon="3.65351">
        <ele>909.8</ele>
        <time>2022-08-10T08:57:26Z</time>
      </trkpt>
      <trkpt lat="44.2443" lon="3.65354">
        <ele>910.2</ele>
        <time>2022-08-10T08:57:40Z</time>
      </trkpt>
      <trkpt lat="44.24429" lon="3.65355">
        <ele>910.2</ele>
        <time>2022-08-10T08:57:42Z</time>
      </trkpt>
      <trkpt lat="44.24423" lon="3.6536">
        <ele>910.8</ele>
        <time>2022-08-10T08:57:46Z</time>
      </trkpt>
      <trkpt lat="44.2442" lon="3.65361">
        <ele>910.8</ele>
        <time>2022-08-10T08:57:49Z</time>
      </trkpt>
      <trkpt lat="44.24418" lon="3.65362">
        <ele>911.2</ele>
        <time>2022-08-10T08:57:51Z</time>
      </trkpt>
      <trkpt lat="44.24408" lon="3.65367">
        <ele>912</ele>
        <time>2022-08-10T08:58:04Z</time>
      </trkpt>
      <trkpt lat="44.24407" lon="3.65367">
        <ele>912</ele>
        <time>2022-08-10T08:58:06Z</time>
      </trkpt>
      <trkpt lat="44.24404" lon="3.65374">
        <ele>912.4</ele>
        <time>2022-08-10T08:58:18Z</time>
      </trkpt>
      <trkpt lat="44.24405" lon="3.65374">
        <ele>912.8</ele>
        <time>2022-08-10T08:58:28Z</time>
      </trkpt>
      <trkpt lat="44.24405" lon="3.65381">
        <ele>913.2</ele>
        <time>2022-08-10T08:58:35Z</time>
      </trkpt>
      <trkpt lat="44.24405" lon="3.65383">
        <ele>913.4</ele>
        <time>2022-08-10T08:58:38Z</time>
      </trkpt>
      <trkpt lat="44.2441" lon="3.65391">
        <ele>913.6</ele>
        <time>2022-08-10T08:58:48Z</time>
      </trkpt>
      <trkpt lat="44.24412" lon="3.65392">
        <ele>913.8</ele>
        <time>2022-08-10T08:58:49Z</time>
      </trkpt>
      <trkpt lat="44.24414" lon="3.65395">
        <ele>914.2</ele>
        <time>2022-08-10T08:58:52Z</time>
      </trkpt>
      <trkpt lat="44.24413" lon="3.65405">
        <ele>915.2</ele>
        <time>2022-08-10T08:59:00Z</time>
      </trkpt>
      <trkpt lat="44.24413" lon="3.65406">
        <ele>915.2</ele>
        <time>2022-08-10T08:59:01Z</time>
      </trkpt>
      <trkpt lat="44.24414" lon="3.65407">
        <ele>915.4</ele>
        <time>2022-08-10T08:59:02Z</time>
      </trkpt>
      <trkpt lat="44.24415" lon="3.65409">
        <ele>915.6</ele>
        <time>2022-08-10T08:59:05Z</time>
      </trkpt>
      <trkpt lat="44.24416" lon="3.65412">
        <ele>916.2</ele>
        <time>2022-08-10T08:59:09Z</time>
      </trkpt>
      <trkpt lat="44.24417" lon="3.65412">
        <ele>916.4</ele>
        <time>2022-08-10T08:59:14Z</time>
      </trkpt>
      <trkpt lat="44.24419" lon="3.65417">
        <ele>916.6</ele>
        <time>2022-08-10T08:59:24Z</time>
      </trkpt>
      <trkpt lat="44.2442" lon="3.65417">
        <ele>916.6</ele>
        <time>2022-08-10T08:59:39Z</time>
      </trkpt>
      <trkpt lat="44.24422" lon="3.65421">
        <ele>917.2</ele>
        <time>2022-08-10T08:59:49Z</time>
      </trkpt>
      <trkpt lat="44.24425" lon="3.65425">
        <ele>918.2</ele>
        <time>2022-08-10T08:59:54Z</time>
      </trkpt>
      <trkpt lat="44.24427" lon="3.65426">
        <ele>918.4</ele>
        <time>2022-08-10T08:59:55Z</time>
      </trkpt>
      <trkpt lat="44.24429" lon="3.65433">
        <ele>918.8</ele>
        <time>2022-08-10T09:00:06Z</time>
      </trkpt>
      <trkpt lat="44.24431" lon="3.65435">
        <ele>918.4</ele>
        <time>2022-08-10T09:00:19Z</time>
      </trkpt>
      <trkpt lat="44.24431" lon="3.65425">
        <ele>917.8</ele>
        <time>2022-08-10T09:00:37Z</time>
      </trkpt>
      <trkpt lat="44.24438" lon="3.65407">
        <ele>917.8</ele>
        <time>2022-08-10T09:00:53Z</time>
      </trkpt>
      <trkpt lat="44.2444" lon="3.65404">
        <ele>918</ele>
        <time>2022-08-10T09:00:56Z</time>
      </trkpt>
      <trkpt lat="44.24441" lon="3.65403">
        <ele>918.2</ele>
        <time>2022-08-10T09:00:58Z</time>
      </trkpt>
      <trkpt lat="44.24447" lon="3.65394">
        <ele>917.8</ele>
        <time>2022-08-10T09:01:11Z</time>
      </trkpt>
      <trkpt lat="44.24448" lon="3.65391">
        <ele>917.4</ele>
        <time>2022-08-10T09:01:15Z</time>
      </trkpt>
      <trkpt lat="44.24447" lon="3.6539">
        <ele>917.2</ele>
        <time>2022-08-10T09:01:16Z</time>
      </trkpt>
      <trkpt lat="44.24444" lon="3.65387">
        <ele>917</ele>
        <time>2022-08-10T09:01:24Z</time>
      </trkpt>
      <trkpt lat="44.24444" lon="3.65381">
        <ele>916.6</ele>
        <time>2022-08-10T09:01:37Z</time>
      </trkpt>
      <trkpt lat="44.2445" lon="3.65379">
        <ele>916.2</ele>
        <time>2022-08-10T09:01:51Z</time>
      </trkpt>
      <trkpt lat="44.2445" lon="3.65377">
        <ele>916.2</ele>
        <time>2022-08-10T09:01:53Z</time>
      </trkpt>
      <trkpt lat="44.2446" lon="3.65369">
        <ele>915.8</ele>
        <time>2022-08-10T09:02:04Z</time>
      </trkpt>
      <trkpt lat="44.24462" lon="3.65367">
        <ele>915.6</ele>
        <time>2022-08-10T09:02:06Z</time>
      </trkpt>
      <trkpt lat="44.24472" lon="3.65363">
        <ele>915.8</ele>
        <time>2022-08-10T09:02:24Z</time>
      </trkpt>
      <trkpt lat="44.24473" lon="3.65362">
        <ele>916</ele>
        <time>2022-08-10T09:02:44Z</time>
      </trkpt>
      <trkpt lat="44.24483" lon="3.65358">
        <ele>915.8</ele>
        <time>2022-08-10T09:03:01Z</time>
      </trkpt>
      <trkpt lat="44.24485" lon="3.65357">
        <ele>916</ele>
        <time>2022-08-10T09:03:03Z</time>
      </trkpt>
      <trkpt lat="44.24479" lon="3.65353">
        <ele>916.8</ele>
        <time>2022-08-10T09:03:15Z</time>
      </trkpt>
      <trkpt lat="44.24482" lon="3.65351">
        <ele>917</ele>
        <time>2022-08-10T09:03:18Z</time>
      </trkpt>
      <trkpt lat="44.2449" lon="3.6534">
        <ele>916.2</ele>
        <time>2022-08-10T09:03:33Z</time>
      </trkpt>
      <trkpt lat="44.24493" lon="3.65336">
        <ele>916.4</ele>
        <time>2022-08-10T09:03:37Z</time>
      </trkpt>
      <trkpt lat="44.245" lon="3.65327">
        <ele>916.4</ele>
        <time>2022-08-10T09:03:48Z</time>
      </trkpt>
      <trkpt lat="44.245" lon="3.65327">
        <ele>916.4</ele>
        <time>2022-08-10T09:03:49Z</time>
      </trkpt>
      <trkpt lat="44.24505" lon="3.65319">
        <ele>916.2</ele>
        <time>2022-08-10T09:04:03Z</time>
      </trkpt>
      <trkpt lat="44.24517" lon="3.65314">
        <ele>916.4</ele>
        <time>2022-08-10T09:04:18Z</time>
      </trkpt>
      <trkpt lat="44.24523" lon="3.65311">
        <ele>916.4</ele>
        <time>2022-08-10T09:04:24Z</time>
      </trkpt>
      <trkpt lat="44.24527" lon="3.65304">
        <ele>916</ele>
        <time>2022-08-10T09:04:33Z</time>
      </trkpt>
      <trkpt lat="44.24535" lon="3.65298">
        <ele>915.8</ele>
        <time>2022-08-10T09:04:39Z</time>
      </trkpt>
      <trkpt lat="44.24549" lon="3.65286">
        <ele>915.4</ele>
        <time>2022-08-10T09:04:49Z</time>
      </trkpt>
      <trkpt lat="44.24547" lon="3.65281">
        <ele>915.4</ele>
        <time>2022-08-10T09:04:55Z</time>
      </trkpt>
      <trkpt lat="44.24544" lon="3.65278">
        <ele>915.4</ele>
        <time>2022-08-10T09:05:00Z</time>
      </trkpt>
      <trkpt lat="44.24543" lon="3.65279">
        <ele>915.6</ele>
        <time>2022-08-10T09:05:17Z</time>
      </trkpt>
      <trkpt lat="44.24551" lon="3.65277">
        <ele>915.4</ele>
        <time>2022-08-10T09:05:30Z</time>
      </trkpt>
      <trkpt lat="44.24552" lon="3.65278">
        <ele>915.2</ele>
        <time>2022-08-10T09:05:31Z</time>
      </trkpt>
      <trkpt lat="44.24556" lon="3.6528">
        <ele>916.2</ele>
        <time>2022-08-10T09:05:41Z</time>
      </trkpt>
      <trkpt lat="44.24555" lon="3.65282">
        <ele>917</ele>
        <time>2022-08-10T09:05:46Z</time>
      </trkpt>
      <trkpt lat="44.24555" lon="3.65284">
        <ele>917.4</ele>
        <time>2022-08-10T09:05:48Z</time>
      </trkpt>
      <trkpt lat="44.24557" lon="3.65289">
        <ele>918.4</ele>
        <time>2022-08-10T09:05:53Z</time>
      </trkpt>
      <trkpt lat="44.24558" lon="3.6529">
        <ele>918.6</ele>
        <time>2022-08-10T09:05:54Z</time>
      </trkpt>
      <trkpt lat="44.24558" lon="3.65293">
        <ele>918.8</ele>
        <time>2022-08-10T09:05:56Z</time>
      </trkpt>
      <trkpt lat="44.24559" lon="3.65294">
        <ele>919.4</ele>
        <time>2022-08-10T09:05:58Z</time>
      </trkpt>
      <trkpt lat="44.2456" lon="3.65293">
        <ele>919.6</ele>
        <time>2022-08-10T09:05:59Z</time>
      </trkpt>
      <trkpt lat="44.24561" lon="3.65294">
        <ele>919.8</ele>
        <time>2022-08-10T09:06:00Z</time>
      </trkpt>
      <trkpt lat="44.24562" lon="3.65294">
        <ele>919.8</ele>
        <time>2022-08-10T09:06:01Z</time>
      </trkpt>
      <trkpt lat="44.24568" lon="3.65295">
        <ele>920.6</ele>
        <time>2022-08-10T09:06:08Z</time>
      </trkpt>
      <trkpt lat="44.24567" lon="3.65294">
        <ele>920.8</ele>
        <time>2022-08-10T09:06:10Z</time>
      </trkpt>
      <trkpt lat="44.24568" lon="3.65292">
        <ele>921.2</ele>
        <time>2022-08-10T09:06:12Z</time>
      </trkpt>
      <trkpt lat="44.24569" lon="3.65291">
        <ele>921.4</ele>
        <time>2022-08-10T09:06:14Z</time>
      </trkpt>
      <trkpt lat="44.2457" lon="3.65288">
        <ele>921.6</ele>
        <time>2022-08-10T09:06:18Z</time>
      </trkpt>
      <trkpt lat="44.24572" lon="3.65286">
        <ele>921.8</ele>
        <time>2022-08-10T09:06:20Z</time>
      </trkpt>
      <trkpt lat="44.24572" lon="3.65285">
        <ele>922</ele>
        <time>2022-08-10T09:06:21Z</time>
      </trkpt>
      <trkpt lat="44.24576" lon="3.65284">
        <ele>922.6</ele>
        <time>2022-08-10T09:06:30Z</time>
      </trkpt>
      <trkpt lat="44.24576" lon="3.65284">
        <ele>922.8</ele>
        <time>2022-08-10T09:06:31Z</time>
      </trkpt>
      <trkpt lat="44.24574" lon="3.65284">
        <ele>922.6</ele>
        <time>2022-08-10T09:06:42Z</time>
      </trkpt>
      <trkpt lat="44.2457" lon="3.65293">
        <ele>922.8</ele>
        <time>2022-08-10T09:06:53Z</time>
      </trkpt>
      <trkpt lat="44.24568" lon="3.65295">
        <ele>923.4</ele>
        <time>2022-08-10T09:06:56Z</time>
      </trkpt>
      <trkpt lat="44.24567" lon="3.65296">
        <ele>923.6</ele>
        <time>2022-08-10T09:06:58Z</time>
      </trkpt>
      <trkpt lat="44.24566" lon="3.65297">
        <ele>923.6</ele>
        <time>2022-08-10T09:06:59Z</time>
      </trkpt>
      <trkpt lat="44.24565" lon="3.65299">
        <ele>923.8</ele>
        <time>2022-08-10T09:07:01Z</time>
      </trkpt>
      <trkpt lat="44.24562" lon="3.65303">
        <ele>924</ele>
        <time>2022-08-10T09:07:05Z</time>
      </trkpt>
      <trkpt lat="44.24561" lon="3.65306">
        <ele>923.8</ele>
        <time>2022-08-10T09:07:08Z</time>
      </trkpt>
      <trkpt lat="44.24558" lon="3.65308">
        <ele>923.6</ele>
        <time>2022-08-10T09:07:19Z</time>
      </trkpt>
      <trkpt lat="44.24554" lon="3.65317">
        <ele>924.4</ele>
        <time>2022-08-10T09:07:31Z</time>
      </trkpt>
      <trkpt lat="44.24554" lon="3.65317">
        <ele>924.4</ele>
        <time>2022-08-10T09:07:32Z</time>
      </trkpt>
      <trkpt lat="44.24553" lon="3.65318">
        <ele>924.6</ele>
        <time>2022-08-10T09:07:33Z</time>
      </trkpt>
      <trkpt lat="44.24552" lon="3.6532">
        <ele>924.6</ele>
        <time>2022-08-10T09:07:35Z</time>
      </trkpt>
      <trkpt lat="44.24551" lon="3.65323">
        <ele>924.8</ele>
        <time>2022-08-10T09:07:37Z</time>
      </trkpt>
      <trkpt lat="44.24543" lon="3.65334">
        <ele>925.2</ele>
        <time>2022-08-10T09:07:48Z</time>
      </trkpt>
      <trkpt lat="44.24539" lon="3.65339">
        <ele>925.8</ele>
        <time>2022-08-10T09:07:53Z</time>
      </trkpt>
      <trkpt lat="44.2453" lon="3.65345">
        <ele>926.2</ele>
        <time>2022-08-10T09:08:03Z</time>
      </trkpt>
      <trkpt lat="44.24516" lon="3.65361">
        <ele>925.6</ele>
        <time>2022-08-10T09:08:19Z</time>
      </trkpt>
      <trkpt lat="44.24509" lon="3.65374">
        <ele>924.8</ele>
        <time>2022-08-10T09:08:32Z</time>
      </trkpt>
      <trkpt lat="44.24507" lon="3.65377">
        <ele>924.4</ele>
        <time>2022-08-10T09:08:36Z</time>
      </trkpt>
      <trkpt lat="44.24501" lon="3.65383">
        <ele>923.6</ele>
        <time>2022-08-10T09:08:44Z</time>
      </trkpt>
      <trkpt lat="44.24495" lon="3.65391">
        <ele>923.8</ele>
        <time>2022-08-10T09:08:54Z</time>
      </trkpt>
      <trkpt lat="44.2449" lon="3.65398">
        <ele>924.2</ele>
        <time>2022-08-10T09:09:03Z</time>
      </trkpt>
      <trkpt lat="44.24484" lon="3.65402">
        <ele>924.6</ele>
        <time>2022-08-10T09:09:10Z</time>
      </trkpt>
      <trkpt lat="44.24483" lon="3.65403">
        <ele>924.8</ele>
        <time>2022-08-10T09:09:12Z</time>
      </trkpt>
      <trkpt lat="44.24477" lon="3.65408">
        <ele>925.2</ele>
        <time>2022-08-10T09:09:22Z</time>
      </trkpt>
      <trkpt lat="44.24477" lon="3.65409">
        <ele>925.2</ele>
        <time>2022-08-10T09:09:25Z</time>
      </trkpt>
      <trkpt lat="44.24476" lon="3.65413">
        <ele>924</ele>
        <time>2022-08-10T09:09:40Z</time>
      </trkpt>
      <trkpt lat="44.24473" lon="3.65417">
        <ele>923.6</ele>
        <time>2022-08-10T09:09:50Z</time>
      </trkpt>
      <trkpt lat="44.24472" lon="3.65419">
        <ele>923.6</ele>
        <time>2022-08-10T09:09:55Z</time>
      </trkpt>
      <trkpt lat="44.24473" lon="3.65423">
        <ele>923.8</ele>
        <time>2022-08-10T09:10:09Z</time>
      </trkpt>
      <trkpt lat="44.24473" lon="3.65421">
        <ele>924.2</ele>
        <time>2022-08-10T09:10:26Z</time>
      </trkpt>
      <trkpt lat="44.24473" lon="3.65421">
        <ele>924.2</ele>
        <time>2022-08-10T09:10:43Z</time>
      </trkpt>
      <trkpt lat="44.24468" lon="3.65427">
        <ele>924.2</ele>
        <time>2022-08-10T09:10:57Z</time>
      </trkpt>
      <trkpt lat="44.24458" lon="3.65435">
        <ele>924.4</ele>
        <time>2022-08-10T09:11:09Z</time>
      </trkpt>
      <trkpt lat="44.24457" lon="3.65435">
        <ele>924.4</ele>
        <time>2022-08-10T09:11:11Z</time>
      </trkpt>
      <trkpt lat="44.24455" lon="3.65437">
        <ele>924.4</ele>
        <time>2022-08-10T09:11:14Z</time>
      </trkpt>
      <trkpt lat="44.24452" lon="3.6544">
        <ele>924.4</ele>
        <time>2022-08-10T09:11:18Z</time>
      </trkpt>
      <trkpt lat="44.24449" lon="3.65443">
        <ele>924.2</ele>
        <time>2022-08-10T09:11:22Z</time>
      </trkpt>
      <trkpt lat="44.24437" lon="3.65461">
        <ele>924.4</ele>
        <time>2022-08-10T09:11:40Z</time>
      </trkpt>
      <trkpt lat="44.24436" lon="3.65462">
        <ele>924.6</ele>
        <time>2022-08-10T09:11:41Z</time>
      </trkpt>
      <trkpt lat="44.24428" lon="3.65473">
        <ele>925.6</ele>
        <time>2022-08-10T09:11:56Z</time>
      </trkpt>
      <trkpt lat="44.24428" lon="3.65473">
        <ele>925.6</ele>
        <time>2022-08-10T09:11:57Z</time>
      </trkpt>
      <trkpt lat="44.24431" lon="3.65472">
        <ele>925.6</ele>
        <time>2022-08-10T09:12:08Z</time>
      </trkpt>
      <trkpt lat="44.24429" lon="3.65473">
        <ele>925.4</ele>
        <time>2022-08-10T09:12:21Z</time>
      </trkpt>
      <trkpt lat="44.24426" lon="3.65479">
        <ele>926.2</ele>
        <time>2022-08-10T09:12:28Z</time>
      </trkpt>
      <trkpt lat="44.24425" lon="3.6548">
        <ele>926.2</ele>
        <time>2022-08-10T09:12:30Z</time>
      </trkpt>
      <trkpt lat="44.24424" lon="3.65483">
        <ele>926.2</ele>
        <time>2022-08-10T09:12:33Z</time>
      </trkpt>
      <trkpt lat="44.24423" lon="3.65484">
        <ele>926.4</ele>
        <time>2022-08-10T09:12:34Z</time>
      </trkpt>
      <trkpt lat="44.24422" lon="3.65488">
        <ele>926.6</ele>
        <time>2022-08-10T09:12:37Z</time>
      </trkpt>
      <trkpt lat="44.24422" lon="3.65489">
        <ele>926.8</ele>
        <time>2022-08-10T09:12:38Z</time>
      </trkpt>
      <trkpt lat="44.24419" lon="3.65502">
        <ele>927.4</ele>
        <time>2022-08-10T09:12:48Z</time>
      </trkpt>
      <trkpt lat="44.24419" lon="3.65503">
        <ele>927.4</ele>
        <time>2022-08-10T09:12:49Z</time>
      </trkpt>
      <trkpt lat="44.24418" lon="3.65505">
        <ele>927.2</ele>
        <time>2022-08-10T09:12:51Z</time>
      </trkpt>
      <trkpt lat="44.24417" lon="3.65516">
        <ele>926</ele>
        <time>2022-08-10T09:13:00Z</time>
      </trkpt>
      <trkpt lat="44.24417" lon="3.65517">
        <ele>925.8</ele>
        <time>2022-08-10T09:13:02Z</time>
      </trkpt>
      <trkpt lat="44.24418" lon="3.65519">
        <ele>925.6</ele>
        <time>2022-08-10T09:13:04Z</time>
      </trkpt>
      <trkpt lat="44.24418" lon="3.6552">
        <ele>925.6</ele>
        <time>2022-08-10T09:13:05Z</time>
      </trkpt>
      <trkpt lat="44.24418" lon="3.65522">
        <ele>925.4</ele>
        <time>2022-08-10T09:13:07Z</time>
      </trkpt>
      <trkpt lat="44.24417" lon="3.65527">
        <ele>925</ele>
        <time>2022-08-10T09:13:11Z</time>
      </trkpt>
      <trkpt lat="44.24417" lon="3.6553">
        <ele>925</ele>
        <time>2022-08-10T09:13:13Z</time>
      </trkpt>
      <trkpt lat="44.24417" lon="3.65532">
        <ele>924.6</ele>
        <time>2022-08-10T09:13:15Z</time>
      </trkpt>
      <trkpt lat="44.24411" lon="3.65543">
        <ele>923.4</ele>
        <time>2022-08-10T09:13:26Z</time>
      </trkpt>
      <trkpt lat="44.24408" lon="3.65542">
        <ele>922.2</ele>
        <time>2022-08-10T09:13:29Z</time>
      </trkpt>
      <trkpt lat="44.24403" lon="3.65537">
        <ele>921.2</ele>
        <time>2022-08-10T09:13:35Z</time>
      </trkpt>
      <trkpt lat="44.24403" lon="3.65536">
        <ele>921.2</ele>
        <time>2022-08-10T09:13:36Z</time>
      </trkpt>
      <trkpt lat="44.24403" lon="3.65535">
        <ele>921</ele>
        <time>2022-08-10T09:13:38Z</time>
      </trkpt>
      <trkpt lat="44.24402" lon="3.65534">
        <ele>921</ele>
        <time>2022-08-10T09:13:39Z</time>
      </trkpt>
      <trkpt lat="44.24397" lon="3.65534">
        <ele>921</ele>
        <time>2022-08-10T09:13:41Z</time>
      </trkpt>
      <trkpt lat="44.24397" lon="3.65529">
        <ele>920.4</ele>
        <time>2022-08-10T09:13:48Z</time>
      </trkpt>
      <trkpt lat="44.24396" lon="3.65529">
        <ele>920.2</ele>
        <time>2022-08-10T09:13:49Z</time>
      </trkpt>
      <trkpt lat="44.24392" lon="3.65531">
        <ele>920.2</ele>
        <time>2022-08-10T09:13:58Z</time>
      </trkpt>
      <trkpt lat="44.24389" lon="3.65531">
        <ele>920</ele>
        <time>2022-08-10T09:14:01Z</time>
      </trkpt>
      <trkpt lat="44.24388" lon="3.65531">
        <ele>920</ele>
        <time>2022-08-10T09:14:03Z</time>
      </trkpt>
      <trkpt lat="44.24388" lon="3.65533">
        <ele>920.4</ele>
        <time>2022-08-10T09:14:15Z</time>
      </trkpt>
      <trkpt lat="44.24384" lon="3.65532">
        <ele>919.6</ele>
        <time>2022-08-10T09:14:27Z</time>
      </trkpt>
      <trkpt lat="44.24381" lon="3.65531">
        <ele>919.4</ele>
        <time>2022-08-10T09:14:39Z</time>
      </trkpt>
      <trkpt lat="44.24378" lon="3.65531">
        <ele>919</ele>
        <time>2022-08-10T09:14:43Z</time>
      </trkpt>
      <trkpt lat="44.24373" lon="3.65534">
        <ele>918.6</ele>
        <time>2022-08-10T09:14:48Z</time>
      </trkpt>
      <trkpt lat="44.24371" lon="3.65535">
        <ele>918.8</ele>
        <time>2022-08-10T09:14:50Z</time>
      </trkpt>
      <trkpt lat="44.24368" lon="3.65536">
        <ele>918.8</ele>
        <time>2022-08-10T09:14:52Z</time>
      </trkpt>
      <trkpt lat="44.24367" lon="3.65537">
        <ele>918.8</ele>
        <time>2022-08-10T09:14:53Z</time>
      </trkpt>
      <trkpt lat="44.24357" lon="3.65549">
        <ele>918.6</ele>
        <time>2022-08-10T09:15:06Z</time>
      </trkpt>
      <trkpt lat="44.24343" lon="3.65557">
        <ele>918.2</ele>
        <time>2022-08-10T09:15:22Z</time>
      </trkpt>
      <trkpt lat="44.24343" lon="3.65558">
        <ele>918</ele>
        <time>2022-08-10T09:15:23Z</time>
      </trkpt>
      <trkpt lat="44.24332" lon="3.65566">
        <ele>918</ele>
        <time>2022-08-10T09:15:36Z</time>
      </trkpt>
      <trkpt lat="44.24318" lon="3.65576">
        <ele>917.6</ele>
        <time>2022-08-10T09:15:50Z</time>
      </trkpt>
      <trkpt lat="44.24308" lon="3.65589">
        <ele>917</ele>
        <time>2022-08-10T09:16:03Z</time>
      </trkpt>
      <trkpt lat="44.24296" lon="3.65601">
        <ele>916.6</ele>
        <time>2022-08-10T09:16:17Z</time>
      </trkpt>
      <trkpt lat="44.24283" lon="3.65611">
        <ele>916</ele>
        <time>2022-08-10T09:16:30Z</time>
      </trkpt>
      <trkpt lat="44.24283" lon="3.65612">
        <ele>916</ele>
        <time>2022-08-10T09:16:31Z</time>
      </trkpt>
      <trkpt lat="44.2428" lon="3.65614">
        <ele>916</ele>
        <time>2022-08-10T09:16:35Z</time>
      </trkpt>
      <trkpt lat="44.24274" lon="3.65616">
        <ele>915.6</ele>
        <time>2022-08-10T09:16:42Z</time>
      </trkpt>
      <trkpt lat="44.24274" lon="3.65616">
        <ele>915</ele>
        <time>2022-08-10T09:16:44Z</time>
      </trkpt>
      <trkpt lat="44.24275" lon="3.65616">
        <ele>914.8</ele>
        <time>2022-08-10T09:16:45Z</time>
      </trkpt>
      <trkpt lat="44.24273" lon="3.65617">
        <ele>914.6</ele>
        <time>2022-08-10T09:16:50Z</time>
      </trkpt>
      <trkpt lat="44.24265" lon="3.65621">
        <ele>914</ele>
        <time>2022-08-10T09:17:01Z</time>
      </trkpt>
      <trkpt lat="44.24262" lon="3.65622">
        <ele>913.8</ele>
        <time>2022-08-10T09:17:05Z</time>
      </trkpt>
      <trkpt lat="44.24251" lon="3.65628">
        <ele>913.6</ele>
        <time>2022-08-10T09:17:17Z</time>
      </trkpt>
      <trkpt lat="44.24234" lon="3.65632">
        <ele>913</ele>
        <time>2022-08-10T09:17:33Z</time>
      </trkpt>
      <trkpt lat="44.2423" lon="3.65631">
        <ele>913.2</ele>
        <time>2022-08-10T09:17:37Z</time>
      </trkpt>
      <trkpt lat="44.24222" lon="3.65624">
        <ele>913.4</ele>
        <time>2022-08-10T09:17:46Z</time>
      </trkpt>
      <trkpt lat="44.24222" lon="3.65624">
        <ele>912.8</ele>
        <time>2022-08-10T09:18:02Z</time>
      </trkpt>
      <trkpt lat="44.24213" lon="3.65602">
        <ele>912.6</ele>
        <time>2022-08-10T09:18:05Z</time>
      </trkpt>
      <trkpt lat="44.24208" lon="3.65576">
        <ele>912</ele>
        <time>2022-08-10T09:18:23Z</time>
      </trkpt>
      <trkpt lat="44.24208" lon="3.65572">
        <ele>911.8</ele>
        <time>2022-08-10T09:18:26Z</time>
      </trkpt>
      <trkpt lat="44.24207" lon="3.6556">
        <ele>910.8</ele>
        <time>2022-08-10T09:18:36Z</time>
      </trkpt>
      <trkpt lat="44.24207" lon="3.65559">
        <ele>910.8</ele>
        <time>2022-08-10T09:18:37Z</time>
      </trkpt>
      <trkpt lat="44.24207" lon="3.6556">
        <ele>910.8</ele>
        <time>2022-08-10T09:18:38Z</time>
      </trkpt>
      <trkpt lat="44.24207" lon="3.65558">
        <ele>911.4</ele>
        <time>2022-08-10T09:18:50Z</time>
      </trkpt>
      <trkpt lat="44.24209" lon="3.65551">
        <ele>911.2</ele>
        <time>2022-08-10T09:19:00Z</time>
      </trkpt>
      <trkpt lat="44.24209" lon="3.65544">
        <ele>910.8</ele>
        <time>2022-08-10T09:19:05Z</time>
      </trkpt>
      <trkpt lat="44.24209" lon="3.65541">
        <ele>910.6</ele>
        <time>2022-08-10T09:19:10Z</time>
      </trkpt>
      <trkpt lat="44.24209" lon="3.65541">
        <ele>910.4</ele>
        <time>2022-08-10T09:19:12Z</time>
      </trkpt>
      <trkpt lat="44.24207" lon="3.65536">
        <ele>910.4</ele>
        <time>2022-08-10T09:19:24Z</time>
      </trkpt>
      <trkpt lat="44.2421" lon="3.65529">
        <ele>910.6</ele>
        <time>2022-08-10T09:19:37Z</time>
      </trkpt>
      <trkpt lat="44.24209" lon="3.65522">
        <ele>910.2</ele>
        <time>2022-08-10T09:19:51Z</time>
      </trkpt>
      <trkpt lat="44.24207" lon="3.65513">
        <ele>909.8</ele>
        <time>2022-08-10T09:20:05Z</time>
      </trkpt>
      <trkpt lat="44.24207" lon="3.65511">
        <ele>909.8</ele>
        <time>2022-08-10T09:20:06Z</time>
      </trkpt>
      <trkpt lat="44.24207" lon="3.65508">
        <ele>909.6</ele>
        <time>2022-08-10T09:20:08Z</time>
      </trkpt>
      <trkpt lat="44.24204" lon="3.65503">
        <ele>909.6</ele>
        <time>2022-08-10T09:20:14Z</time>
      </trkpt>
      <trkpt lat="44.24203" lon="3.65501">
        <ele>909.6</ele>
        <time>2022-08-10T09:20:16Z</time>
      </trkpt>
      <trkpt lat="44.24203" lon="3.655">
        <ele>909.6</ele>
        <time>2022-08-10T09:20:17Z</time>
      </trkpt>
      <trkpt lat="44.24202" lon="3.65495">
        <ele>909.6</ele>
        <time>2022-08-10T09:20:20Z</time>
      </trkpt>
      <trkpt lat="44.24201" lon="3.6549">
        <ele>909</ele>
        <time>2022-08-10T09:20:26Z</time>
      </trkpt>
      <trkpt lat="44.24202" lon="3.6549">
        <ele>909</ele>
        <time>2022-08-10T09:20:28Z</time>
      </trkpt>
      <trkpt lat="44.24202" lon="3.65481">
        <ele>909</ele>
        <time>2022-08-10T09:20:37Z</time>
      </trkpt>
      <trkpt lat="44.24201" lon="3.65473">
        <ele>908.6</ele>
        <time>2022-08-10T09:20:43Z</time>
      </trkpt>
      <trkpt lat="44.242" lon="3.65455">
        <ele>907.6</ele>
        <time>2022-08-10T09:20:56Z</time>
      </trkpt>
      <trkpt lat="44.24199" lon="3.65454">
        <ele>907.4</ele>
        <time>2022-08-10T09:20:57Z</time>
      </trkpt>
      <trkpt lat="44.24197" lon="3.65438">
        <ele>906.6</ele>
        <time>2022-08-10T09:21:10Z</time>
      </trkpt>
      <trkpt lat="44.24197" lon="3.6543">
        <ele>906.4</ele>
        <time>2022-08-10T09:21:16Z</time>
      </trkpt>
      <trkpt lat="44.24196" lon="3.65422">
        <ele>906</ele>
        <time>2022-08-10T09:21:22Z</time>
      </trkpt>
      <trkpt lat="44.24196" lon="3.65411">
        <ele>905</ele>
        <time>2022-08-10T09:21:31Z</time>
      </trkpt>
      <trkpt lat="44.24196" lon="3.65409">
        <ele>904.6</ele>
        <time>2022-08-10T09:21:32Z</time>
      </trkpt>
      <trkpt lat="44.24195" lon="3.65407">
        <ele>904.4</ele>
        <time>2022-08-10T09:21:34Z</time>
      </trkpt>
      <trkpt lat="44.24191" lon="3.65402">
        <ele>905</ele>
        <time>2022-08-10T09:21:41Z</time>
      </trkpt>
      <trkpt lat="44.24188" lon="3.654">
        <ele>905.4</ele>
        <time>2022-08-10T09:21:45Z</time>
      </trkpt>
      <trkpt lat="44.24184" lon="3.65397">
        <ele>905.8</ele>
        <time>2022-08-10T09:21:49Z</time>
      </trkpt>
      <trkpt lat="44.24183" lon="3.65397">
        <ele>906</ele>
        <time>2022-08-10T09:21:50Z</time>
      </trkpt>
      <trkpt lat="44.24177" lon="3.65398">
        <ele>907</ele>
        <time>2022-08-10T09:21:57Z</time>
      </trkpt>
      <trkpt lat="44.2417" lon="3.65404">
        <ele>908.2</ele>
        <time>2022-08-10T09:22:07Z</time>
      </trkpt>
      <trkpt lat="44.2417" lon="3.65404">
        <ele>908.2</ele>
        <time>2022-08-10T09:22:08Z</time>
      </trkpt>
      <trkpt lat="44.2417" lon="3.65405">
        <ele>908.2</ele>
        <time>2022-08-10T09:22:09Z</time>
      </trkpt>
      <trkpt lat="44.24168" lon="3.65405">
        <ele>909.2</ele>
        <time>2022-08-10T09:22:14Z</time>
      </trkpt>
      <trkpt lat="44.24168" lon="3.65404">
        <ele>910.4</ele>
        <time>2022-08-10T09:22:17Z</time>
      </trkpt>
      <trkpt lat="44.24168" lon="3.65404">
        <ele>910.2</ele>
        <time>2022-08-10T09:22:22Z</time>
      </trkpt>
      <trkpt lat="44.24169" lon="3.65407">
        <ele>909.8</ele>
        <time>2022-08-10T09:22:36Z</time>
      </trkpt>
      <trkpt lat="44.24168" lon="3.65417">
        <ele>910</ele>
        <time>2022-08-10T09:22:46Z</time>
      </trkpt>
      <trkpt lat="44.24168" lon="3.65419">
        <ele>910</ele>
        <time>2022-08-10T09:22:47Z</time>
      </trkpt>
      <trkpt lat="44.24166" lon="3.65432">
        <ele>911.2</ele>
        <time>2022-08-10T09:22:59Z</time>
      </trkpt>
      <trkpt lat="44.24166" lon="3.65433">
        <ele>911.4</ele>
        <time>2022-08-10T09:23:02Z</time>
      </trkpt>
      <trkpt lat="44.24165" lon="3.65441">
        <ele>911.4</ele>
        <time>2022-08-10T09:23:08Z</time>
      </trkpt>
      <trkpt lat="44.24165" lon="3.65456">
        <ele>912.6</ele>
        <time>2022-08-10T09:23:19Z</time>
      </trkpt>
      <trkpt lat="44.24164" lon="3.6546">
        <ele>912.8</ele>
        <time>2022-08-10T09:23:22Z</time>
      </trkpt>
      <trkpt lat="44.24164" lon="3.6547">
        <ele>913.6</ele>
        <time>2022-08-10T09:23:29Z</time>
      </trkpt>
      <trkpt lat="44.24164" lon="3.65478">
        <ele>914</ele>
        <time>2022-08-10T09:23:35Z</time>
      </trkpt>
      <trkpt lat="44.24162" lon="3.65486">
        <ele>914.6</ele>
        <time>2022-08-10T09:23:43Z</time>
      </trkpt>
      <trkpt lat="44.24161" lon="3.65489">
        <ele>915</ele>
        <time>2022-08-10T09:23:48Z</time>
      </trkpt>
      <trkpt lat="44.24161" lon="3.65492">
        <ele>915.2</ele>
        <time>2022-08-10T09:24:01Z</time>
      </trkpt>
      <trkpt lat="44.24159" lon="3.655">
        <ele>915.4</ele>
        <time>2022-08-10T09:24:11Z</time>
      </trkpt>
      <trkpt lat="44.24158" lon="3.65502">
        <ele>915.8</ele>
        <time>2022-08-10T09:24:13Z</time>
      </trkpt>
      <trkpt lat="44.24158" lon="3.65503">
        <ele>916</ele>
        <time>2022-08-10T09:24:23Z</time>
      </trkpt>
      <trkpt lat="44.24156" lon="3.65513">
        <ele>916.6</ele>
        <time>2022-08-10T09:24:34Z</time>
      </trkpt>
      <trkpt lat="44.24153" lon="3.65517">
        <ele>916.4</ele>
        <time>2022-08-10T09:24:39Z</time>
      </trkpt>
      <trkpt lat="44.24151" lon="3.65519">
        <ele>916.4</ele>
        <time>2022-08-10T09:24:42Z</time>
      </trkpt>
      <trkpt lat="44.2415" lon="3.65521">
        <ele>916.6</ele>
        <time>2022-08-10T09:24:45Z</time>
      </trkpt>
      <trkpt lat="44.24148" lon="3.65522">
        <ele>916.6</ele>
        <time>2022-08-10T09:24:47Z</time>
      </trkpt>
      <trkpt lat="44.24148" lon="3.65524">
        <ele>916.6</ele>
        <time>2022-08-10T09:24:49Z</time>
      </trkpt>
      <trkpt lat="44.24145" lon="3.65528">
        <ele>916.4</ele>
        <time>2022-08-10T09:24:57Z</time>
      </trkpt>
      <trkpt lat="44.24144" lon="3.65529">
        <ele>916.8</ele>
        <time>2022-08-10T09:24:59Z</time>
      </trkpt>
      <trkpt lat="44.24141" lon="3.65533">
        <ele>917</ele>
        <time>2022-08-10T09:25:06Z</time>
      </trkpt>
      <trkpt lat="44.24138" lon="3.65538">
        <ele>916.6</ele>
        <time>2022-08-10T09:25:15Z</time>
      </trkpt>
      <trkpt lat="44.24133" lon="3.65547">
        <ele>916.8</ele>
        <time>2022-08-10T09:25:28Z</time>
      </trkpt>
      <trkpt lat="44.24131" lon="3.65553">
        <ele>916.8</ele>
        <time>2022-08-10T09:25:38Z</time>
      </trkpt>
      <trkpt lat="44.24128" lon="3.65559">
        <ele>917</ele>
        <time>2022-08-10T09:25:44Z</time>
      </trkpt>
      <trkpt lat="44.24128" lon="3.65559">
        <ele>917</ele>
        <time>2022-08-10T09:25:45Z</time>
      </trkpt>
      <trkpt lat="44.24128" lon="3.65559">
        <ele>917</ele>
        <time>2022-08-10T09:25:48Z</time>
      </trkpt>
      <trkpt lat="44.24125" lon="3.65565">
        <ele>916.6</ele>
        <time>2022-08-10T09:26:00Z</time>
      </trkpt>
      <trkpt lat="44.24124" lon="3.65566">
        <ele>916.8</ele>
        <time>2022-08-10T09:26:01Z</time>
      </trkpt>
      <trkpt lat="44.2412" lon="3.65581">
        <ele>917.8</ele>
        <time>2022-08-10T09:26:16Z</time>
      </trkpt>
      <trkpt lat="44.24119" lon="3.65583">
        <ele>917.8</ele>
        <time>2022-08-10T09:26:18Z</time>
      </trkpt>
      <trkpt lat="44.24118" lon="3.65589">
        <ele>918.2</ele>
        <time>2022-08-10T09:26:24Z</time>
      </trkpt>
      <trkpt lat="44.24117" lon="3.65595">
        <ele>918.4</ele>
        <time>2022-08-10T09:26:31Z</time>
      </trkpt>
      <trkpt lat="44.24117" lon="3.65598">
        <ele>919</ele>
        <time>2022-08-10T09:26:34Z</time>
      </trkpt>
      <trkpt lat="44.24118" lon="3.65602">
        <ele>919.2</ele>
        <time>2022-08-10T09:26:37Z</time>
      </trkpt>
      <trkpt lat="44.24118" lon="3.65604">
        <ele>919.6</ele>
        <time>2022-08-10T09:26:39Z</time>
      </trkpt>
      <trkpt lat="44.24117" lon="3.65606">
        <ele>920</ele>
        <time>2022-08-10T09:26:42Z</time>
      </trkpt>
      <trkpt lat="44.24115" lon="3.65609">
        <ele>920.4</ele>
        <time>2022-08-10T09:26:46Z</time>
      </trkpt>
      <trkpt lat="44.2411" lon="3.65611">
        <ele>920.6</ele>
        <time>2022-08-10T09:26:59Z</time>
      </trkpt>
      <trkpt lat="44.241" lon="3.65608">
        <ele>920.8</ele>
        <time>2022-08-10T09:27:13Z</time>
      </trkpt>
      <trkpt lat="44.241" lon="3.65608">
        <ele>920.4</ele>
        <time>2022-08-10T09:27:26Z</time>
      </trkpt>
      <trkpt lat="44.24105" lon="3.65602">
        <ele>921</ele>
        <time>2022-08-10T09:27:49Z</time>
      </trkpt>
      <trkpt lat="44.24108" lon="3.65601">
        <ele>921.2</ele>
        <time>2022-08-10T09:27:53Z</time>
      </trkpt>
      <trkpt lat="44.24119" lon="3.65599">
        <ele>921</ele>
        <time>2022-08-10T09:28:00Z</time>
      </trkpt>
      <trkpt lat="44.2412" lon="3.65599">
        <ele>921</ele>
        <time>2022-08-10T09:28:02Z</time>
      </trkpt>
      <trkpt lat="44.24121" lon="3.65599">
        <ele>921</ele>
        <time>2022-08-10T09:28:05Z</time>
      </trkpt>
      <trkpt lat="44.24124" lon="3.65598">
        <ele>920</ele>
        <time>2022-08-10T09:28:12Z</time>
      </trkpt>
      <trkpt lat="44.24126" lon="3.65598">
        <ele>920</ele>
        <time>2022-08-10T09:28:23Z</time>
      </trkpt>
      <trkpt lat="44.24131" lon="3.65598">
        <ele>920</ele>
        <time>2022-08-10T09:28:43Z</time>
      </trkpt>
      <trkpt lat="44.24128" lon="3.65597">
        <ele>920.8</ele>
        <time>2022-08-10T09:29:10Z</time>
      </trkpt>
      <trkpt lat="44.24119" lon="3.65602">
        <ele>920.6</ele>
        <time>2022-08-10T09:29:27Z</time>
      </trkpt>
      <trkpt lat="44.24117" lon="3.65606">
        <ele>920</ele>
        <time>2022-08-10T09:29:31Z</time>
      </trkpt>
      <trkpt lat="44.24115" lon="3.6561">
        <ele>920</ele>
        <time>2022-08-10T09:29:33Z</time>
      </trkpt>
      <trkpt lat="44.24115" lon="3.65612">
        <ele>920</ele>
        <time>2022-08-10T09:29:35Z</time>
      </trkpt>
      <trkpt lat="44.24114" lon="3.65614">
        <ele>920</ele>
        <time>2022-08-10T09:29:38Z</time>
      </trkpt>
      <trkpt lat="44.2411" lon="3.65619">
        <ele>921.2</ele>
        <time>2022-08-10T09:29:45Z</time>
      </trkpt>
      <trkpt lat="44.24108" lon="3.6562">
        <ele>921.2</ele>
        <time>2022-08-10T09:29:46Z</time>
      </trkpt>
      <trkpt lat="44.24106" lon="3.65621">
        <ele>921.6</ele>
        <time>2022-08-10T09:29:48Z</time>
      </trkpt>
      <trkpt lat="44.24104" lon="3.65622">
        <ele>921.8</ele>
        <time>2022-08-10T09:29:50Z</time>
      </trkpt>
      <trkpt lat="44.24103" lon="3.65623">
        <ele>922</ele>
        <time>2022-08-10T09:29:51Z</time>
      </trkpt>
      <trkpt lat="44.24102" lon="3.65623">
        <ele>922.2</ele>
        <time>2022-08-10T09:29:52Z</time>
      </trkpt>
      <trkpt lat="44.241" lon="3.65624">
        <ele>922.4</ele>
        <time>2022-08-10T09:29:54Z</time>
      </trkpt>
      <trkpt lat="44.24097" lon="3.65626">
        <ele>923</ele>
        <time>2022-08-10T09:29:58Z</time>
      </trkpt>
      <trkpt lat="44.24095" lon="3.65627">
        <ele>923.2</ele>
        <time>2022-08-10T09:30:01Z</time>
      </trkpt>
      <trkpt lat="44.24095" lon="3.65629">
        <ele>923.4</ele>
        <time>2022-08-10T09:30:03Z</time>
      </trkpt>
      <trkpt lat="44.24093" lon="3.6563">
        <ele>923.4</ele>
        <time>2022-08-10T09:30:05Z</time>
      </trkpt>
      <trkpt lat="44.24093" lon="3.6563">
        <ele>923.4</ele>
        <time>2022-08-10T09:30:06Z</time>
      </trkpt>
      <trkpt lat="44.24089" lon="3.65631">
        <ele>923.6</ele>
        <time>2022-08-10T09:30:10Z</time>
      </trkpt>
      <trkpt lat="44.24087" lon="3.65631">
        <ele>924.4</ele>
        <time>2022-08-10T09:30:13Z</time>
      </trkpt>
      <trkpt lat="44.24086" lon="3.6563">
        <ele>924.8</ele>
        <time>2022-08-10T09:30:15Z</time>
      </trkpt>
      <trkpt lat="44.24084" lon="3.65631">
        <ele>924.8</ele>
        <time>2022-08-10T09:30:17Z</time>
      </trkpt>
      <trkpt lat="44.24082" lon="3.65631">
        <ele>925</ele>
        <time>2022-08-10T09:30:19Z</time>
      </trkpt>
      <trkpt lat="44.24081" lon="3.6563">
        <ele>925</ele>
        <time>2022-08-10T09:30:20Z</time>
      </trkpt>
      <trkpt lat="44.24079" lon="3.6563">
        <ele>925.4</ele>
        <time>2022-08-10T09:30:22Z</time>
      </trkpt>
      <trkpt lat="44.24078" lon="3.65629">
        <ele>925.6</ele>
        <time>2022-08-10T09:30:23Z</time>
      </trkpt>
      <trkpt lat="44.24077" lon="3.65629">
        <ele>926.4</ele>
        <time>2022-08-10T09:30:28Z</time>
      </trkpt>
      <trkpt lat="44.24077" lon="3.65629">
        <ele>926.6</ele>
        <time>2022-08-10T09:30:30Z</time>
      </trkpt>
      <trkpt lat="44.24076" lon="3.65628">
        <ele>926.6</ele>
        <time>2022-08-10T09:30:31Z</time>
      </trkpt>
      <trkpt lat="44.24068" lon="3.65625">
        <ele>927.6</ele>
        <time>2022-08-10T09:30:41Z</time>
      </trkpt>
      <trkpt lat="44.24067" lon="3.65624">
        <ele>927.8</ele>
        <time>2022-08-10T09:30:43Z</time>
      </trkpt>
      <trkpt lat="44.24062" lon="3.65626">
        <ele>928.6</ele>
        <time>2022-08-10T09:30:49Z</time>
      </trkpt>
      <trkpt lat="44.24062" lon="3.65631">
        <ele>929.6</ele>
        <time>2022-08-10T09:30:53Z</time>
      </trkpt>
      <trkpt lat="44.24059" lon="3.65639">
        <ele>930.8</ele>
        <time>2022-08-10T09:31:03Z</time>
      </trkpt>
      <trkpt lat="44.24058" lon="3.65639">
        <ele>931</ele>
        <time>2022-08-10T09:31:05Z</time>
      </trkpt>
      <trkpt lat="44.24049" lon="3.65637">
        <ele>931.8</ele>
        <time>2022-08-10T09:31:14Z</time>
      </trkpt>
      <trkpt lat="44.24048" lon="3.65637">
        <ele>931.8</ele>
        <time>2022-08-10T09:31:15Z</time>
      </trkpt>
      <trkpt lat="44.24039" lon="3.65637">
        <ele>932.2</ele>
        <time>2022-08-10T09:31:25Z</time>
      </trkpt>
      <trkpt lat="44.24028" lon="3.65639">
        <ele>932.8</ele>
        <time>2022-08-10T09:31:36Z</time>
      </trkpt>
      <trkpt lat="44.24026" lon="3.6564">
        <ele>933</ele>
        <time>2022-08-10T09:31:38Z</time>
      </trkpt>
      <trkpt lat="44.24017" lon="3.6564">
        <ele>933.8</ele>
        <time>2022-08-10T09:31:46Z</time>
      </trkpt>
      <trkpt lat="44.24013" lon="3.65642">
        <ele>934</ele>
        <time>2022-08-10T09:31:50Z</time>
      </trkpt>
      <trkpt lat="44.24006" lon="3.6565">
        <ele>935</ele>
        <time>2022-08-10T09:31:59Z</time>
      </trkpt>
      <trkpt lat="44.24005" lon="3.65651">
        <ele>935</ele>
        <time>2022-08-10T09:32:00Z</time>
      </trkpt>
      <trkpt lat="44.24004" lon="3.65657">
        <ele>935</ele>
        <time>2022-08-10T09:32:06Z</time>
      </trkpt>
      <trkpt lat="44.24004" lon="3.65662">
        <ele>935</ele>
        <time>2022-08-10T09:32:09Z</time>
      </trkpt>
      <trkpt lat="44.24004" lon="3.65663">
        <ele>935.4</ele>
        <time>2022-08-10T09:32:10Z</time>
      </trkpt>
      <trkpt lat="44.24004" lon="3.65671">
        <ele>936</ele>
        <time>2022-08-10T09:32:15Z</time>
      </trkpt>
      <trkpt lat="44.24004" lon="3.6568">
        <ele>936</ele>
        <time>2022-08-10T09:32:21Z</time>
      </trkpt>
      <trkpt lat="44.24006" lon="3.65694">
        <ele>937.2</ele>
        <time>2022-08-10T09:32:31Z</time>
      </trkpt>
      <trkpt lat="44.24008" lon="3.65702">
        <ele>937.6</ele>
        <time>2022-08-10T09:32:37Z</time>
      </trkpt>
      <trkpt lat="44.24012" lon="3.65711">
        <ele>938.2</ele>
        <time>2022-08-10T09:32:44Z</time>
      </trkpt>
      <trkpt lat="44.24015" lon="3.65721">
        <ele>938.8</ele>
        <time>2022-08-10T09:32:51Z</time>
      </trkpt>
      <trkpt lat="44.24017" lon="3.65728">
        <ele>939.2</ele>
        <time>2022-08-10T09:32:57Z</time>
      </trkpt>
      <trkpt lat="44.24021" lon="3.6574">
        <ele>939.2</ele>
        <time>2022-08-10T09:33:06Z</time>
      </trkpt>
      <trkpt lat="44.24024" lon="3.65745">
        <ele>939.4</ele>
        <time>2022-08-10T09:33:13Z</time>
      </trkpt>
      <trkpt lat="44.24025" lon="3.65746">
        <ele>939.6</ele>
        <time>2022-08-10T09:33:17Z</time>
      </trkpt>
      <trkpt lat="44.24028" lon="3.65758">
        <ele>939.6</ele>
        <time>2022-08-10T09:33:28Z</time>
      </trkpt>
      <trkpt lat="44.24035" lon="3.65777">
        <ele>939</ele>
        <time>2022-08-10T09:33:41Z</time>
      </trkpt>
      <trkpt lat="44.24039" lon="3.65793">
        <ele>938.2</ele>
        <time>2022-08-10T09:33:52Z</time>
      </trkpt>
      <trkpt lat="44.2404" lon="3.65794">
        <ele>938.2</ele>
        <time>2022-08-10T09:33:53Z</time>
      </trkpt>
      <trkpt lat="44.24044" lon="3.65813">
        <ele>937</ele>
        <time>2022-08-10T09:34:06Z</time>
      </trkpt>
      <trkpt lat="44.24046" lon="3.6582">
        <ele>935.8</ele>
        <time>2022-08-10T09:34:12Z</time>
      </trkpt>
      <trkpt lat="44.2405" lon="3.65826">
        <ele>935.4</ele>
        <time>2022-08-10T09:34:19Z</time>
      </trkpt>
      <trkpt lat="44.24057" lon="3.65834">
        <ele>935.4</ele>
        <time>2022-08-10T09:34:30Z</time>
      </trkpt>
      <trkpt lat="44.24066" lon="3.65837">
        <ele>935.4</ele>
        <time>2022-08-10T09:34:41Z</time>
      </trkpt>
      <trkpt lat="44.24082" lon="3.65841">
        <ele>936</ele>
        <time>2022-08-10T09:34:57Z</time>
      </trkpt>
      <trkpt lat="44.24097" lon="3.65847">
        <ele>936.4</ele>
        <time>2022-08-10T09:35:12Z</time>
      </trkpt>
      <trkpt lat="44.24108" lon="3.65854">
        <ele>937</ele>
        <time>2022-08-10T09:35:23Z</time>
      </trkpt>
      <trkpt lat="44.24112" lon="3.65857">
        <ele>936.8</ele>
        <time>2022-08-10T09:35:27Z</time>
      </trkpt>
      <trkpt lat="44.24124" lon="3.65863">
        <ele>937.2</ele>
        <time>2022-08-10T09:35:40Z</time>
      </trkpt>
      <trkpt lat="44.24135" lon="3.65863">
        <ele>937.6</ele>
        <time>2022-08-10T09:35:51Z</time>
      </trkpt>
      <trkpt lat="44.24145" lon="3.65865">
        <ele>938</ele>
        <time>2022-08-10T09:36:01Z</time>
      </trkpt>
      <trkpt lat="44.2415" lon="3.65864">
        <ele>938.4</ele>
        <time>2022-08-10T09:36:06Z</time>
      </trkpt>
      <trkpt lat="44.24167" lon="3.65861">
        <ele>938.2</ele>
        <time>2022-08-10T09:36:21Z</time>
      </trkpt>
      <trkpt lat="44.24176" lon="3.65861">
        <ele>937.8</ele>
        <time>2022-08-10T09:36:34Z</time>
      </trkpt>
      <trkpt lat="44.24185" lon="3.65858">
        <ele>937.6</ele>
        <time>2022-08-10T09:36:43Z</time>
      </trkpt>
      <trkpt lat="44.24196" lon="3.65856">
        <ele>936.8</ele>
        <time>2022-08-10T09:36:53Z</time>
      </trkpt>
      <trkpt lat="44.24198" lon="3.65854">
        <ele>936.8</ele>
        <time>2022-08-10T09:36:57Z</time>
      </trkpt>
      <trkpt lat="44.24198" lon="3.65854">
        <ele>936.8</ele>
        <time>2022-08-10T09:36:59Z</time>
      </trkpt>
      <trkpt lat="44.24199" lon="3.65853">
        <ele>937</ele>
        <time>2022-08-10T09:37:07Z</time>
      </trkpt>
      <trkpt lat="44.24203" lon="3.65852">
        <ele>936.6</ele>
        <time>2022-08-10T09:37:21Z</time>
      </trkpt>
      <trkpt lat="44.24207" lon="3.6585">
        <ele>936</ele>
        <time>2022-08-10T09:37:26Z</time>
      </trkpt>
      <trkpt lat="44.24208" lon="3.6585">
        <ele>936</ele>
        <time>2022-08-10T09:37:27Z</time>
      </trkpt>
      <trkpt lat="44.2421" lon="3.65847">
        <ele>936</ele>
        <time>2022-08-10T09:37:35Z</time>
      </trkpt>
      <trkpt lat="44.24215" lon="3.65847">
        <ele>935.8</ele>
        <time>2022-08-10T09:37:42Z</time>
      </trkpt>
      <trkpt lat="44.24216" lon="3.65849">
        <ele>935.6</ele>
        <time>2022-08-10T09:37:44Z</time>
      </trkpt>
      <trkpt lat="44.24217" lon="3.6585">
        <ele>935.6</ele>
        <time>2022-08-10T09:37:45Z</time>
      </trkpt>
      <trkpt lat="44.24221" lon="3.6586">
        <ele>934.8</ele>
        <time>2022-08-10T09:37:53Z</time>
      </trkpt>
      <trkpt lat="44.24221" lon="3.65864">
        <ele>934.6</ele>
        <time>2022-08-10T09:37:56Z</time>
      </trkpt>
      <trkpt lat="44.24224" lon="3.65882">
        <ele>934</ele>
        <time>2022-08-10T09:38:09Z</time>
      </trkpt>
      <trkpt lat="44.24226" lon="3.65888">
        <ele>933.8</ele>
        <time>2022-08-10T09:38:14Z</time>
      </trkpt>
      <trkpt lat="44.2423" lon="3.65899">
        <ele>933.4</ele>
        <time>2022-08-10T09:38:23Z</time>
      </trkpt>
      <trkpt lat="44.24233" lon="3.65908">
        <ele>932.8</ele>
        <time>2022-08-10T09:38:31Z</time>
      </trkpt>
      <trkpt lat="44.24237" lon="3.65915">
        <ele>932.6</ele>
        <time>2022-08-10T09:38:36Z</time>
      </trkpt>
      <trkpt lat="44.24243" lon="3.65924">
        <ele>931.6</ele>
        <time>2022-08-10T09:38:44Z</time>
      </trkpt>
      <trkpt lat="44.24246" lon="3.65935">
        <ele>931.4</ele>
        <time>2022-08-10T09:38:51Z</time>
      </trkpt>
      <trkpt lat="44.24257" lon="3.65955">
        <ele>931.2</ele>
        <time>2022-08-10T09:39:07Z</time>
      </trkpt>
      <trkpt lat="44.24258" lon="3.65956">
        <ele>931</ele>
        <time>2022-08-10T09:39:08Z</time>
      </trkpt>
      <trkpt lat="44.24264" lon="3.65965">
        <ele>930.6</ele>
        <time>2022-08-10T09:39:15Z</time>
      </trkpt>
      <trkpt lat="44.24266" lon="3.65968">
        <ele>930.4</ele>
        <time>2022-08-10T09:39:18Z</time>
      </trkpt>
      <trkpt lat="44.24267" lon="3.6597">
        <ele>930.4</ele>
        <time>2022-08-10T09:39:20Z</time>
      </trkpt>
      <trkpt lat="44.24272" lon="3.6598">
        <ele>929.6</ele>
        <time>2022-08-10T09:39:29Z</time>
      </trkpt>
      <trkpt lat="44.24274" lon="3.65986">
        <ele>929.4</ele>
        <time>2022-08-10T09:39:34Z</time>
      </trkpt>
      <trkpt lat="44.24285" lon="3.66005">
        <ele>928.8</ele>
        <time>2022-08-10T09:39:49Z</time>
      </trkpt>
      <trkpt lat="44.2429" lon="3.66014">
        <ele>928.6</ele>
        <time>2022-08-10T09:39:56Z</time>
      </trkpt>
      <trkpt lat="44.24295" lon="3.66026">
        <ele>928.2</ele>
        <time>2022-08-10T09:40:05Z</time>
      </trkpt>
      <trkpt lat="44.24299" lon="3.6603">
        <ele>927.6</ele>
        <time>2022-08-10T09:40:11Z</time>
      </trkpt>
      <trkpt lat="44.243" lon="3.6603">
        <ele>927.2</ele>
        <time>2022-08-10T09:40:12Z</time>
      </trkpt>
      <trkpt lat="44.24303" lon="3.6603">
        <ele>927</ele>
        <time>2022-08-10T09:40:15Z</time>
      </trkpt>
      <trkpt lat="44.24304" lon="3.6603">
        <ele>927</ele>
        <time>2022-08-10T09:40:16Z</time>
      </trkpt>
      <trkpt lat="44.24307" lon="3.66029">
        <ele>927</ele>
        <time>2022-08-10T09:40:19Z</time>
      </trkpt>
      <trkpt lat="44.24316" lon="3.66028">
        <ele>928.4</ele>
        <time>2022-08-10T09:40:29Z</time>
      </trkpt>
      <trkpt lat="44.24319" lon="3.66028">
        <ele>928.8</ele>
        <time>2022-08-10T09:40:32Z</time>
      </trkpt>
      <trkpt lat="44.24326" lon="3.66028">
        <ele>929.8</ele>
        <time>2022-08-10T09:40:39Z</time>
      </trkpt>
      <trkpt lat="44.24332" lon="3.66027">
        <ele>930.4</ele>
        <time>2022-08-10T09:40:46Z</time>
      </trkpt>
      <trkpt lat="44.24338" lon="3.66027">
        <ele>931</ele>
        <time>2022-08-10T09:40:53Z</time>
      </trkpt>
      <trkpt lat="44.2434" lon="3.66027">
        <ele>931.2</ele>
        <time>2022-08-10T09:40:55Z</time>
      </trkpt>
      <trkpt lat="44.24342" lon="3.66027">
        <ele>931.6</ele>
        <time>2022-08-10T09:40:59Z</time>
      </trkpt>
      <trkpt lat="44.24345" lon="3.66026">
        <ele>932</ele>
        <time>2022-08-10T09:41:07Z</time>
      </trkpt>
      <trkpt lat="44.24345" lon="3.66026">
        <ele>932</ele>
        <time>2022-08-10T09:41:08Z</time>
      </trkpt>
      <trkpt lat="44.24352" lon="3.6602">
        <ele>932.4</ele>
        <time>2022-08-10T09:41:17Z</time>
      </trkpt>
      <trkpt lat="44.24357" lon="3.66015">
        <ele>933.2</ele>
        <time>2022-08-10T09:41:24Z</time>
      </trkpt>
      <trkpt lat="44.24359" lon="3.66013">
        <ele>933.4</ele>
        <time>2022-08-10T09:41:26Z</time>
      </trkpt>
      <trkpt lat="44.24364" lon="3.66007">
        <ele>933.8</ele>
        <time>2022-08-10T09:41:32Z</time>
      </trkpt>
      <trkpt lat="44.24367" lon="3.66004">
        <ele>934.2</ele>
        <time>2022-08-10T09:41:36Z</time>
      </trkpt>
      <trkpt lat="44.2437" lon="3.65997">
        <ele>935.4</ele>
        <time>2022-08-10T09:41:42Z</time>
      </trkpt>
      <trkpt lat="44.24373" lon="3.6599">
        <ele>936</ele>
        <time>2022-08-10T09:41:47Z</time>
      </trkpt>
      <trkpt lat="44.24375" lon="3.65985">
        <ele>936.4</ele>
        <time>2022-08-10T09:41:51Z</time>
      </trkpt>
      <trkpt lat="44.24378" lon="3.65977">
        <ele>937</ele>
        <time>2022-08-10T09:41:59Z</time>
      </trkpt>
      <trkpt lat="44.24381" lon="3.65973">
        <ele>937.6</ele>
        <time>2022-08-10T09:42:04Z</time>
      </trkpt>
      <trkpt lat="44.24384" lon="3.65965">
        <ele>938.6</ele>
        <time>2022-08-10T09:42:11Z</time>
      </trkpt>
      <trkpt lat="44.24384" lon="3.65964">
        <ele>938.8</ele>
        <time>2022-08-10T09:42:12Z</time>
      </trkpt>
      <trkpt lat="44.24387" lon="3.65958">
        <ele>939.8</ele>
        <time>2022-08-10T09:42:18Z</time>
      </trkpt>
      <trkpt lat="44.24389" lon="3.65953">
        <ele>940.6</ele>
        <time>2022-08-10T09:42:24Z</time>
      </trkpt>
      <trkpt lat="44.24391" lon="3.65951">
        <ele>940.8</ele>
        <time>2022-08-10T09:42:28Z</time>
      </trkpt>
      <trkpt lat="44.24392" lon="3.65947">
        <ele>941.8</ele>
        <time>2022-08-10T09:42:31Z</time>
      </trkpt>
      <trkpt lat="44.24393" lon="3.65941">
        <ele>943</ele>
        <time>2022-08-10T09:42:37Z</time>
      </trkpt>
      <trkpt lat="44.24393" lon="3.6594">
        <ele>943.2</ele>
        <time>2022-08-10T09:42:38Z</time>
      </trkpt>
      <trkpt lat="44.24393" lon="3.65939">
        <ele>943.2</ele>
        <time>2022-08-10T09:42:39Z</time>
      </trkpt>
      <trkpt lat="44.24394" lon="3.65936">
        <ele>944.2</ele>
        <time>2022-08-10T09:42:43Z</time>
      </trkpt>
      <trkpt lat="44.24394" lon="3.65933">
        <ele>945.2</ele>
        <time>2022-08-10T09:42:48Z</time>
      </trkpt>
      <trkpt lat="44.24392" lon="3.6593">
        <ele>945.4</ele>
        <time>2022-08-10T09:42:52Z</time>
      </trkpt>
      <trkpt lat="44.24396" lon="3.65926">
        <ele>946.2</ele>
        <time>2022-08-10T09:43:01Z</time>
      </trkpt>
      <trkpt lat="44.24398" lon="3.65924">
        <ele>947.2</ele>
        <time>2022-08-10T09:43:04Z</time>
      </trkpt>
      <trkpt lat="44.24398" lon="3.65923">
        <ele>947.4</ele>
        <time>2022-08-10T09:43:05Z</time>
      </trkpt>
      <trkpt lat="44.24396" lon="3.65914">
        <ele>948.2</ele>
        <time>2022-08-10T09:43:14Z</time>
      </trkpt>
      <trkpt lat="44.24395" lon="3.65913">
        <ele>948.4</ele>
        <time>2022-08-10T09:43:16Z</time>
      </trkpt>
      <trkpt lat="44.24391" lon="3.65912">
        <ele>949.4</ele>
        <time>2022-08-10T09:43:22Z</time>
      </trkpt>
      <trkpt lat="44.2439" lon="3.65909">
        <ele>950.6</ele>
        <time>2022-08-10T09:43:26Z</time>
      </trkpt>
      <trkpt lat="44.2439" lon="3.65907">
        <ele>951.8</ele>
        <time>2022-08-10T09:43:29Z</time>
      </trkpt>
      <trkpt lat="44.24392" lon="3.65907">
        <ele>952.8</ele>
        <time>2022-08-10T09:43:34Z</time>
      </trkpt>
      <trkpt lat="44.24395" lon="3.65906">
        <ele>953.4</ele>
        <time>2022-08-10T09:43:40Z</time>
      </trkpt>
      <trkpt lat="44.24395" lon="3.65905">
        <ele>954</ele>
        <time>2022-08-10T09:43:47Z</time>
      </trkpt>
      <trkpt lat="44.24396" lon="3.65903">
        <ele>954.2</ele>
        <time>2022-08-10T09:43:51Z</time>
      </trkpt>
      <trkpt lat="44.24397" lon="3.65902">
        <ele>955</ele>
        <time>2022-08-10T09:43:57Z</time>
      </trkpt>
      <trkpt lat="44.24398" lon="3.65901">
        <ele>955</ele>
        <time>2022-08-10T09:44:06Z</time>
      </trkpt>
      <trkpt lat="44.24393" lon="3.65901">
        <ele>954.4</ele>
        <time>2022-08-10T09:44:21Z</time>
      </trkpt>
      <trkpt lat="44.2439" lon="3.65897">
        <ele>956.4</ele>
        <time>2022-08-10T09:44:28Z</time>
      </trkpt>
      <trkpt lat="44.24391" lon="3.65896">
        <ele>957</ele>
        <time>2022-08-10T09:44:31Z</time>
      </trkpt>
      <trkpt lat="44.24392" lon="3.65894">
        <ele>957.4</ele>
        <time>2022-08-10T09:44:34Z</time>
      </trkpt>
      <trkpt lat="44.24392" lon="3.65892">
        <ele>958.4</ele>
        <time>2022-08-10T09:44:38Z</time>
      </trkpt>
      <trkpt lat="44.24391" lon="3.6589">
        <ele>959.2</ele>
        <time>2022-08-10T09:44:46Z</time>
      </trkpt>
      <trkpt lat="44.24388" lon="3.65889">
        <ele>959.6</ele>
        <time>2022-08-10T09:44:55Z</time>
      </trkpt>
      <trkpt lat="44.24387" lon="3.6589">
        <ele>960.4</ele>
        <time>2022-08-10T09:44:59Z</time>
      </trkpt>
      <trkpt lat="44.24386" lon="3.65891">
        <ele>960.8</ele>
        <time>2022-08-10T09:45:02Z</time>
      </trkpt>
      <trkpt lat="44.24381" lon="3.65893">
        <ele>961.8</ele>
        <time>2022-08-10T09:45:10Z</time>
      </trkpt>
      <trkpt lat="44.24381" lon="3.65893">
        <ele>962</ele>
        <time>2022-08-10T09:45:12Z</time>
      </trkpt>
      <trkpt lat="44.24381" lon="3.65893">
        <ele>962.6</ele>
        <time>2022-08-10T09:45:25Z</time>
      </trkpt>
      <trkpt lat="44.24376" lon="3.65889">
        <ele>962.6</ele>
        <time>2022-08-10T09:45:38Z</time>
      </trkpt>
      <trkpt lat="44.24375" lon="3.65888">
        <ele>963</ele>
        <time>2022-08-10T09:45:40Z</time>
      </trkpt>
      <trkpt lat="44.24369" lon="3.65884">
        <ele>963.4</ele>
        <time>2022-08-10T09:45:48Z</time>
      </trkpt>
      <trkpt lat="44.24365" lon="3.65881">
        <ele>964</ele>
        <time>2022-08-10T09:45:53Z</time>
      </trkpt>
      <trkpt lat="44.24359" lon="3.65878">
        <ele>964.8</ele>
        <time>2022-08-10T09:46:00Z</time>
      </trkpt>
      <trkpt lat="44.24357" lon="3.65877">
        <ele>965</ele>
        <time>2022-08-10T09:46:03Z</time>
      </trkpt>
      <trkpt lat="44.24357" lon="3.65877">
        <ele>965</ele>
        <time>2022-08-10T09:46:04Z</time>
      </trkpt>
      <trkpt lat="44.24354" lon="3.65875">
        <ele>965.8</ele>
        <time>2022-08-10T09:46:09Z</time>
      </trkpt>
      <trkpt lat="44.24353" lon="3.65874">
        <ele>966.2</ele>
        <time>2022-08-10T09:46:10Z</time>
      </trkpt>
      <trkpt lat="44.24352" lon="3.65873">
        <ele>966.4</ele>
        <time>2022-08-10T09:46:12Z</time>
      </trkpt>
      <trkpt lat="44.24349" lon="3.65869">
        <ele>967</ele>
        <time>2022-08-10T09:46:18Z</time>
      </trkpt>
      <trkpt lat="44.24348" lon="3.65868">
        <ele>967.2</ele>
        <time>2022-08-10T09:46:19Z</time>
      </trkpt>
      <trkpt lat="44.24348" lon="3.65868">
        <ele>967.4</ele>
        <time>2022-08-10T09:46:20Z</time>
      </trkpt>
      <trkpt lat="44.24347" lon="3.65867">
        <ele>967.6</ele>
        <time>2022-08-10T09:46:25Z</time>
      </trkpt>
      <trkpt lat="44.24342" lon="3.65864">
        <ele>968.4</ele>
        <time>2022-08-10T09:46:31Z</time>
      </trkpt>
      <trkpt lat="44.24338" lon="3.65863">
        <ele>968.6</ele>
        <time>2022-08-10T09:46:35Z</time>
      </trkpt>
      <trkpt lat="44.24334" lon="3.6586">
        <ele>968.6</ele>
        <time>2022-08-10T09:46:42Z</time>
      </trkpt>
      <trkpt lat="44.24333" lon="3.6586">
        <ele>968.4</ele>
        <time>2022-08-10T09:46:46Z</time>
      </trkpt>
      <trkpt lat="44.24332" lon="3.65859">
        <ele>968.6</ele>
        <time>2022-08-10T09:46:54Z</time>
      </trkpt>
      <trkpt lat="44.24332" lon="3.65859">
        <ele>968.6</ele>
        <time>2022-08-10T09:46:57Z</time>
      </trkpt>
      <trkpt lat="44.2433" lon="3.6586">
        <ele>968.8</ele>
        <time>2022-08-10T09:47:10Z</time>
      </trkpt>
      <trkpt lat="44.24327" lon="3.65859">
        <ele>968.4</ele>
        <time>2022-08-10T09:47:18Z</time>
      </trkpt>
      <trkpt lat="44.24324" lon="3.65856">
        <ele>969.2</ele>
        <time>2022-08-10T09:47:29Z</time>
      </trkpt>
      <trkpt lat="44.24324" lon="3.65854">
        <ele>969.2</ele>
        <time>2022-08-10T09:47:42Z</time>
      </trkpt>
      <trkpt lat="44.24323" lon="3.6585">
        <ele>968.8</ele>
        <time>2022-08-10T09:47:56Z</time>
      </trkpt>
      <trkpt lat="44.24323" lon="3.65851">
        <ele>969.4</ele>
        <time>2022-08-10T09:48:03Z</time>
      </trkpt>
      <trkpt lat="44.24322" lon="3.6585">
        <ele>969.6</ele>
        <time>2022-08-10T09:48:08Z</time>
      </trkpt>
      <trkpt lat="44.24322" lon="3.65847">
        <ele>970.6</ele>
        <time>2022-08-10T09:48:16Z</time>
      </trkpt>
      <trkpt lat="44.24321" lon="3.65847">
        <ele>958</ele>
        <time>2022-08-10T09:48:19Z</time>
      </trkpt>
      <trkpt lat="44.24321" lon="3.65847">
        <ele>951.4</ele>
        <time>2022-08-10T09:48:20Z</time>
      </trkpt>
      <trkpt lat="44.24321" lon="3.65847">
        <ele>948.2</ele>
        <time>2022-08-10T09:48:21Z</time>
      </trkpt>
      <trkpt lat="44.24321" lon="3.65847">
        <ele>946.4</ele>
        <time>2022-08-10T09:48:22Z</time>
      </trkpt>
      <trkpt lat="44.24321" lon="3.65847">
        <ele>958</ele>
        <time>2022-08-10T09:48:23Z</time>
      </trkpt>
      <trkpt lat="44.24321" lon="3.65846">
        <ele>964</ele>
        <time>2022-08-10T09:48:24Z</time>
      </trkpt>
      <trkpt lat="44.24321" lon="3.65845">
        <ele>967</ele>
        <time>2022-08-10T09:48:25Z</time>
      </trkpt>
      <trkpt lat="44.24321" lon="3.65844">
        <ele>968.6</ele>
        <time>2022-08-10T09:48:26Z</time>
      </trkpt>
      <trkpt lat="44.24321" lon="3.65843">
        <ele>970</ele>
        <time>2022-08-10T09:48:28Z</time>
      </trkpt>
      <trkpt lat="44.24322" lon="3.6584">
        <ele>971</ele>
        <time>2022-08-10T09:48:31Z</time>
      </trkpt>
      <trkpt lat="44.24322" lon="3.65839">
        <ele>971.4</ele>
        <time>2022-08-10T09:48:33Z</time>
      </trkpt>
      <trkpt lat="44.24321" lon="3.65836">
        <ele>972.2</ele>
        <time>2022-08-10T09:48:37Z</time>
      </trkpt>
      <trkpt lat="44.24321" lon="3.6583">
        <ele>973.4</ele>
        <time>2022-08-10T09:48:43Z</time>
      </trkpt>
      <trkpt lat="44.24321" lon="3.65827">
        <ele>974.4</ele>
        <time>2022-08-10T09:48:47Z</time>
      </trkpt>
      <trkpt lat="44.24322" lon="3.65827">
        <ele>974.6</ele>
        <time>2022-08-10T09:48:48Z</time>
      </trkpt>
      <trkpt lat="44.24321" lon="3.65824">
        <ele>975.6</ele>
        <time>2022-08-10T09:48:52Z</time>
      </trkpt>
      <trkpt lat="44.24321" lon="3.65824">
        <ele>976.2</ele>
        <time>2022-08-10T09:48:59Z</time>
      </trkpt>
      <trkpt lat="44.24321" lon="3.65824">
        <ele>976.4</ele>
        <time>2022-08-10T09:49:14Z</time>
      </trkpt>
      <trkpt lat="44.24321" lon="3.65824">
        <ele>976.2</ele>
        <time>2022-08-10T09:49:20Z</time>
      </trkpt>
      <trkpt lat="44.24321" lon="3.65825">
        <ele>970.4</ele>
        <time>2022-08-10T09:49:27Z</time>
      </trkpt>
      <trkpt lat="44.24321" lon="3.65825">
        <ele>967</ele>
        <time>2022-08-10T09:49:28Z</time>
      </trkpt>
      <trkpt lat="44.24321" lon="3.65825">
        <ele>963.4</ele>
        <time>2022-08-10T09:49:29Z</time>
      </trkpt>
      <trkpt lat="44.24321" lon="3.65825">
        <ele>961</ele>
        <time>2022-08-10T09:49:30Z</time>
      </trkpt>
      <trkpt lat="44.24321" lon="3.65825">
        <ele>959.8</ele>
        <time>2022-08-10T09:49:31Z</time>
      </trkpt>
      <trkpt lat="44.24321" lon="3.65825">
        <ele>958</ele>
        <time>2022-08-10T09:49:32Z</time>
      </trkpt>
      <trkpt lat="44.24322" lon="3.65825">
        <ele>956.6</ele>
        <time>2022-08-10T09:49:34Z</time>
      </trkpt>
      <trkpt lat="44.24322" lon="3.65825">
        <ele>966</ele>
        <time>2022-08-10T09:49:36Z</time>
      </trkpt>
      <trkpt lat="44.24322" lon="3.65824">
        <ele>970.8</ele>
        <time>2022-08-10T09:49:37Z</time>
      </trkpt>
      <trkpt lat="44.24322" lon="3.65824">
        <ele>973.4</ele>
        <time>2022-08-10T09:49:38Z</time>
      </trkpt>
      <trkpt lat="44.24322" lon="3.65824">
        <ele>974.8</ele>
        <time>2022-08-10T09:49:39Z</time>
      </trkpt>
      <trkpt lat="44.24322" lon="3.65825">
        <ele>975.8</ele>
        <time>2022-08-10T09:49:42Z</time>
      </trkpt>
      <trkpt lat="44.24322" lon="3.65825">
        <ele>975.8</ele>
        <time>2022-08-10T09:49:45Z</time>
      </trkpt>
      <trkpt lat="44.24326" lon="3.65823">
        <ele>975.8</ele>
        <time>2022-08-10T09:49:58Z</time>
      </trkpt>
      <trkpt lat="44.24328" lon="3.65823">
        <ele>976.8</ele>
        <time>2022-08-10T09:50:01Z</time>
      </trkpt>
      <trkpt lat="44.24328" lon="3.65827">
        <ele>977.8</ele>
        <time>2022-08-10T09:50:06Z</time>
      </trkpt>
      <trkpt lat="44.24329" lon="3.65828">
        <ele>978.2</ele>
        <time>2022-08-10T09:50:07Z</time>
      </trkpt>
      <trkpt lat="44.24329" lon="3.65828">
        <ele>978.4</ele>
        <time>2022-08-10T09:50:08Z</time>
      </trkpt>
      <trkpt lat="44.2433" lon="3.6583">
        <ele>979.2</ele>
        <time>2022-08-10T09:50:18Z</time>
      </trkpt>
      <trkpt lat="44.2433" lon="3.6583">
        <ele>979.4</ele>
        <time>2022-08-10T09:50:19Z</time>
      </trkpt>
      <trkpt lat="44.24335" lon="3.65831">
        <ele>980.4</ele>
        <time>2022-08-10T09:50:29Z</time>
      </trkpt>
      <trkpt lat="44.24337" lon="3.65831">
        <ele>980.8</ele>
        <time>2022-08-10T09:50:31Z</time>
      </trkpt>
      <trkpt lat="44.24337" lon="3.65831">
        <ele>981.4</ele>
        <time>2022-08-10T09:50:32Z</time>
      </trkpt>
      <trkpt lat="44.2434" lon="3.65829">
        <ele>982.6</ele>
        <time>2022-08-10T09:50:38Z</time>
      </trkpt>
      <trkpt lat="44.24343" lon="3.65829">
        <ele>983.6</ele>
        <time>2022-08-10T09:50:41Z</time>
      </trkpt>
      <trkpt lat="44.24344" lon="3.65828">
        <ele>983.8</ele>
        <time>2022-08-10T09:50:42Z</time>
      </trkpt>
      <trkpt lat="44.24345" lon="3.65828">
        <ele>985</ele>
        <time>2022-08-10T09:50:44Z</time>
      </trkpt>
      <trkpt lat="44.24346" lon="3.65827">
        <ele>986</ele>
        <time>2022-08-10T09:50:49Z</time>
      </trkpt>
      <trkpt lat="44.24348" lon="3.65825">
        <ele>986.8</ele>
        <time>2022-08-10T09:50:53Z</time>
      </trkpt>
      <trkpt lat="44.24349" lon="3.65824">
        <ele>987</ele>
        <time>2022-08-10T09:50:54Z</time>
      </trkpt>
      <trkpt lat="44.24351" lon="3.65824">
        <ele>988</ele>
        <time>2022-08-10T09:50:58Z</time>
      </trkpt>
      <trkpt lat="44.24351" lon="3.65824">
        <ele>988.8</ele>
        <time>2022-08-10T09:50:59Z</time>
      </trkpt>
      <trkpt lat="44.24352" lon="3.65823">
        <ele>989.4</ele>
        <time>2022-08-10T09:51:01Z</time>
      </trkpt>
      <trkpt lat="44.24354" lon="3.65822">
        <ele>989.8</ele>
        <time>2022-08-10T09:51:04Z</time>
      </trkpt>
      <trkpt lat="44.24358" lon="3.65819">
        <ele>991.2</ele>
        <time>2022-08-10T09:51:12Z</time>
      </trkpt>
      <trkpt lat="44.24361" lon="3.65818">
        <ele>992.2</ele>
        <time>2022-08-10T09:51:16Z</time>
      </trkpt>
      <trkpt lat="44.24362" lon="3.65817">
        <ele>992.4</ele>
        <time>2022-08-10T09:51:18Z</time>
      </trkpt>
      <trkpt lat="44.24363" lon="3.65817">
        <ele>992.8</ele>
        <time>2022-08-10T09:51:20Z</time>
      </trkpt>
      <trkpt lat="44.24365" lon="3.65819">
        <ele>992.8</ele>
        <time>2022-08-10T09:51:23Z</time>
      </trkpt>
      <trkpt lat="44.24366" lon="3.65821">
        <ele>992.8</ele>
        <time>2022-08-10T09:51:28Z</time>
      </trkpt>
      <trkpt lat="44.24366" lon="3.65821">
        <ele>993.4</ele>
        <time>2022-08-10T09:51:43Z</time>
      </trkpt>
      <trkpt lat="44.24365" lon="3.65822">
        <ele>993</ele>
        <time>2022-08-10T09:51:55Z</time>
      </trkpt>
      <trkpt lat="44.24365" lon="3.65821">
        <ele>986</ele>
        <time>2022-08-10T09:51:58Z</time>
      </trkpt>
      <trkpt lat="44.24365" lon="3.65821">
        <ele>982.6</ele>
        <time>2022-08-10T09:51:59Z</time>
      </trkpt>
      <trkpt lat="44.24365" lon="3.65821">
        <ele>977.2</ele>
        <time>2022-08-10T09:52:00Z</time>
      </trkpt>
      <trkpt lat="44.24365" lon="3.65821">
        <ele>972.4</ele>
        <time>2022-08-10T09:52:01Z</time>
      </trkpt>
      <trkpt lat="44.24365" lon="3.65821">
        <ele>969.8</ele>
        <time>2022-08-10T09:52:02Z</time>
      </trkpt>
      <trkpt lat="44.24365" lon="3.65821">
        <ele>968.4</ele>
        <time>2022-08-10T09:52:03Z</time>
      </trkpt>
      <trkpt lat="44.24365" lon="3.65822">
        <ele>971.8</ele>
        <time>2022-08-10T09:52:07Z</time>
      </trkpt>
      <trkpt lat="44.24365" lon="3.65822">
        <ele>976.4</ele>
        <time>2022-08-10T09:52:08Z</time>
      </trkpt>
      <trkpt lat="44.24364" lon="3.65821">
        <ele>984.4</ele>
        <time>2022-08-10T09:52:10Z</time>
      </trkpt>
      <trkpt lat="44.24364" lon="3.6582">
        <ele>988.6</ele>
        <time>2022-08-10T09:52:11Z</time>
      </trkpt>
      <trkpt lat="44.24363" lon="3.6582">
        <ele>990.6</ele>
        <time>2022-08-10T09:52:12Z</time>
      </trkpt>
      <trkpt lat="44.24363" lon="3.65819">
        <ele>991.8</ele>
        <time>2022-08-10T09:52:13Z</time>
      </trkpt>
      <trkpt lat="44.24362" lon="3.65817">
        <ele>993.2</ele>
        <time>2022-08-10T09:52:17Z</time>
      </trkpt>
      <trkpt lat="44.24359" lon="3.65814">
        <ele>993.8</ele>
        <time>2022-08-10T09:52:24Z</time>
      </trkpt>
      <trkpt lat="44.24358" lon="3.65811">
        <ele>994.2</ele>
        <time>2022-08-10T09:52:33Z</time>
      </trkpt>
      <trkpt lat="44.24359" lon="3.65812">
        <ele>994</ele>
        <time>2022-08-10T09:52:36Z</time>
      </trkpt>
      <trkpt lat="44.24363" lon="3.65816">
        <ele>993</ele>
        <time>2022-08-10T09:52:42Z</time>
      </trkpt>
      <trkpt lat="44.24364" lon="3.65818">
        <ele>992.8</ele>
        <time>2022-08-10T09:52:44Z</time>
      </trkpt>
      <trkpt lat="44.24365" lon="3.65822">
        <ele>993.4</ele>
        <time>2022-08-10T09:52:56Z</time>
      </trkpt>
      <trkpt lat="44.24365" lon="3.65822">
        <ele>994</ele>
        <time>2022-08-10T09:52:59Z</time>
      </trkpt>
      <trkpt lat="44.24365" lon="3.65822">
        <ele>994</ele>
        <time>2022-08-10T09:53:09Z</time>
      </trkpt>
      <trkpt lat="44.24365" lon="3.65821">
        <ele>993</ele>
        <time>2022-08-10T09:53:19Z</time>
      </trkpt>
      <trkpt lat="44.24365" lon="3.65821">
        <ele>993</ele>
        <time>2022-08-10T09:53:20Z</time>
      </trkpt>
      <trkpt lat="44.24366" lon="3.65821">
        <ele>993.4</ele>
        <time>2022-08-10T09:53:37Z</time>
      </trkpt>
      <trkpt lat="44.24365" lon="3.6582">
        <ele>992.8</ele>
        <time>2022-08-10T09:53:51Z</time>
      </trkpt>
      <trkpt lat="44.24366" lon="3.65822">
        <ele>992.4</ele>
        <time>2022-08-10T09:54:02Z</time>
      </trkpt>
      <trkpt lat="44.24365" lon="3.65822">
        <ele>992.6</ele>
        <time>2022-08-10T09:54:20Z</time>
      </trkpt>
      <trkpt lat="44.24365" lon="3.65822">
        <ele>981</ele>
        <time>2022-08-10T09:54:24Z</time>
      </trkpt>
      <trkpt lat="44.24365" lon="3.65822">
        <ele>954.6</ele>
        <time>2022-08-10T09:54:25Z</time>
      </trkpt>
      <trkpt lat="44.24365" lon="3.65822">
        <ele>941</ele>
        <time>2022-08-10T09:54:26Z</time>
      </trkpt>
      <trkpt lat="44.24365" lon="3.65822">
        <ele>934</ele>
        <time>2022-08-10T09:54:27Z</time>
      </trkpt>
      <trkpt lat="44.24364" lon="3.65822">
        <ele>930.4</ele>
        <time>2022-08-10T09:54:28Z</time>
      </trkpt>
      <trkpt lat="44.24364" lon="3.65822">
        <ele>958</ele>
        <time>2022-08-10T09:54:29Z</time>
      </trkpt>
      <trkpt lat="44.24364" lon="3.65821">
        <ele>974.8</ele>
        <time>2022-08-10T09:54:30Z</time>
      </trkpt>
      <trkpt lat="44.24364" lon="3.65821">
        <ele>983.6</ele>
        <time>2022-08-10T09:54:31Z</time>
      </trkpt>
      <trkpt lat="44.24364" lon="3.6582">
        <ele>988</ele>
        <time>2022-08-10T09:54:32Z</time>
      </trkpt>
      <trkpt lat="44.24364" lon="3.6582">
        <ele>990.4</ele>
        <time>2022-08-10T09:54:33Z</time>
      </trkpt>
      <trkpt lat="44.24364" lon="3.6582">
        <ele>991.6</ele>
        <time>2022-08-10T09:54:34Z</time>
      </trkpt>
      <trkpt lat="44.24364" lon="3.6582">
        <ele>992.6</ele>
        <time>2022-08-10T09:54:36Z</time>
      </trkpt>
      <trkpt lat="44.24364" lon="3.6582">
        <ele>991</ele>
        <time>2022-08-10T09:54:39Z</time>
      </trkpt>
      <trkpt lat="44.24364" lon="3.6582">
        <ele>958.6</ele>
        <time>2022-08-10T09:54:40Z</time>
      </trkpt>
      <trkpt lat="44.24364" lon="3.6582">
        <ele>942</ele>
        <time>2022-08-10T09:54:41Z</time>
      </trkpt>
      <trkpt lat="44.24364" lon="3.6582">
        <ele>933.4</ele>
        <time>2022-08-10T09:54:42Z</time>
      </trkpt>
      <trkpt lat="44.24364" lon="3.6582">
        <ele>929</ele>
        <time>2022-08-10T09:54:43Z</time>
      </trkpt>
      <trkpt lat="44.24364" lon="3.6582">
        <ele>926.8</ele>
        <time>2022-08-10T09:54:44Z</time>
      </trkpt>
      <trkpt lat="44.24364" lon="3.6582">
        <ele>928.4</ele>
        <time>2022-08-10T09:54:47Z</time>
      </trkpt>
      <trkpt lat="44.24364" lon="3.6582">
        <ele>927.4</ele>
        <time>2022-08-10T09:54:48Z</time>
      </trkpt>
      <trkpt lat="44.24364" lon="3.6582">
        <ele>924.2</ele>
        <time>2022-08-10T09:54:49Z</time>
      </trkpt>
      <trkpt lat="44.24364" lon="3.6582">
        <ele>922.6</ele>
        <time>2022-08-10T09:54:50Z</time>
      </trkpt>
      <trkpt lat="44.24364" lon="3.6582">
        <ele>921.6</ele>
        <time>2022-08-10T09:54:52Z</time>
      </trkpt>
      <trkpt lat="44.24363" lon="3.6582">
        <ele>926</ele>
        <time>2022-08-10T09:54:53Z</time>
      </trkpt>
      <trkpt lat="44.24363" lon="3.65819">
        <ele>958.2</ele>
        <time>2022-08-10T09:54:54Z</time>
      </trkpt>
      <trkpt lat="44.24364" lon="3.65819">
        <ele>974.8</ele>
        <time>2022-08-10T09:54:55Z</time>
      </trkpt>
      <trkpt lat="44.24365" lon="3.65818">
        <ele>983.6</ele>
        <time>2022-08-10T09:54:56Z</time>
      </trkpt>
      <trkpt lat="44.24366" lon="3.65818">
        <ele>988.2</ele>
        <time>2022-08-10T09:54:57Z</time>
      </trkpt>
      <trkpt lat="44.24367" lon="3.65817">
        <ele>990.4</ele>
        <time>2022-08-10T09:54:58Z</time>
      </trkpt>
      <trkpt lat="44.24368" lon="3.65817">
        <ele>991.8</ele>
        <time>2022-08-10T09:54:59Z</time>
      </trkpt>
      <trkpt lat="44.2437" lon="3.65816">
        <ele>992.8</ele>
        <time>2022-08-10T09:55:01Z</time>
      </trkpt>
      <trkpt lat="44.2438" lon="3.65813">
        <ele>993.2</ele>
        <time>2022-08-10T09:55:11Z</time>
      </trkpt>
      <trkpt lat="44.24393" lon="3.65811">
        <ele>993.2</ele>
        <time>2022-08-10T09:55:23Z</time>
      </trkpt>
      <trkpt lat="44.24411" lon="3.65804">
        <ele>993.6</ele>
        <time>2022-08-10T09:55:40Z</time>
      </trkpt>
      <trkpt lat="44.24413" lon="3.65803">
        <ele>994.2</ele>
        <time>2022-08-10T09:55:44Z</time>
      </trkpt>
      <trkpt lat="44.24416" lon="3.65806">
        <ele>995.2</ele>
        <time>2022-08-10T09:55:51Z</time>
      </trkpt>
      <trkpt lat="44.24416" lon="3.65808">
        <ele>996.6</ele>
        <time>2022-08-10T09:55:59Z</time>
      </trkpt>
      <trkpt lat="44.24416" lon="3.65808">
        <ele>993.6</ele>
        <time>2022-08-10T09:56:02Z</time>
      </trkpt>
      <trkpt lat="44.24416" lon="3.65808">
        <ele>992.2</ele>
        <time>2022-08-10T09:56:05Z</time>
      </trkpt>
      <trkpt lat="44.24416" lon="3.65808">
        <ele>993.6</ele>
        <time>2022-08-10T09:56:07Z</time>
      </trkpt>
      <trkpt lat="44.24416" lon="3.65806">
        <ele>994.8</ele>
        <time>2022-08-10T09:56:09Z</time>
      </trkpt>
      <trkpt lat="44.24416" lon="3.65802">
        <ele>995.4</ele>
        <time>2022-08-10T09:56:14Z</time>
      </trkpt>
      <trkpt lat="44.24416" lon="3.65799">
        <ele>996</ele>
        <time>2022-08-10T09:56:18Z</time>
      </trkpt>
      <trkpt lat="44.24418" lon="3.65797">
        <ele>997.2</ele>
        <time>2022-08-10T09:56:22Z</time>
      </trkpt>
      <trkpt lat="44.2442" lon="3.65799">
        <ele>998.2</ele>
        <time>2022-08-10T09:56:25Z</time>
      </trkpt>
      <trkpt lat="44.24421" lon="3.658">
        <ele>996.4</ele>
        <time>2022-08-10T09:56:28Z</time>
      </trkpt>
      <trkpt lat="44.24421" lon="3.658">
        <ele>994</ele>
        <time>2022-08-10T09:56:29Z</time>
      </trkpt>
      <trkpt lat="44.24421" lon="3.658">
        <ele>986.8</ele>
        <time>2022-08-10T09:56:30Z</time>
      </trkpt>
      <trkpt lat="44.24421" lon="3.658">
        <ele>983</ele>
        <time>2022-08-10T09:56:31Z</time>
      </trkpt>
      <trkpt lat="44.24421" lon="3.658">
        <ele>979.8</ele>
        <time>2022-08-10T09:56:32Z</time>
      </trkpt>
      <trkpt lat="44.24421" lon="3.658">
        <ele>978</ele>
        <time>2022-08-10T09:56:33Z</time>
      </trkpt>
      <trkpt lat="44.24422" lon="3.65799">
        <ele>979.8</ele>
        <time>2022-08-10T09:56:35Z</time>
      </trkpt>
      <trkpt lat="44.24422" lon="3.65798">
        <ele>988.6</ele>
        <time>2022-08-10T09:56:36Z</time>
      </trkpt>
      <trkpt lat="44.24423" lon="3.65798">
        <ele>993.4</ele>
        <time>2022-08-10T09:56:37Z</time>
      </trkpt>
      <trkpt lat="44.24423" lon="3.65797">
        <ele>996</ele>
        <time>2022-08-10T09:56:38Z</time>
      </trkpt>
      <trkpt lat="44.24424" lon="3.65796">
        <ele>997.4</ele>
        <time>2022-08-10T09:56:39Z</time>
      </trkpt>
      <trkpt lat="44.24426" lon="3.65794">
        <ele>998.4</ele>
        <time>2022-08-10T09:56:41Z</time>
      </trkpt>
      <trkpt lat="44.2443" lon="3.65786">
        <ele>999.2</ele>
        <time>2022-08-10T09:56:51Z</time>
      </trkpt>
      <trkpt lat="44.24425" lon="3.65768">
        <ele>998.6</ele>
        <time>2022-08-10T09:57:03Z</time>
      </trkpt>
      <trkpt lat="44.24423" lon="3.65767">
        <ele>998.4</ele>
        <time>2022-08-10T09:57:04Z</time>
      </trkpt>
      <trkpt lat="44.24417" lon="3.65759">
        <ele>997.6</ele>
        <time>2022-08-10T09:57:14Z</time>
      </trkpt>
      <trkpt lat="44.24418" lon="3.65758">
        <ele>997.4</ele>
        <time>2022-08-10T09:57:15Z</time>
      </trkpt>
      <trkpt lat="44.24417" lon="3.65758">
        <ele>997.4</ele>
        <time>2022-08-10T09:57:17Z</time>
      </trkpt>
      <trkpt lat="44.24415" lon="3.65757">
        <ele>997.6</ele>
        <time>2022-08-10T09:57:24Z</time>
      </trkpt>
      <trkpt lat="44.24414" lon="3.65758">
        <ele>997.8</ele>
        <time>2022-08-10T09:57:26Z</time>
      </trkpt>
      <trkpt lat="44.24412" lon="3.6576">
        <ele>998.6</ele>
        <time>2022-08-10T09:57:31Z</time>
      </trkpt>
      <trkpt lat="44.24413" lon="3.65761">
        <ele>999.4</ele>
        <time>2022-08-10T09:57:35Z</time>
      </trkpt>
      <trkpt lat="44.24413" lon="3.65762">
        <ele>999.6</ele>
        <time>2022-08-10T09:57:36Z</time>
      </trkpt>
      <trkpt lat="44.24413" lon="3.65767">
        <ele>1000.8</ele>
        <time>2022-08-10T09:57:42Z</time>
      </trkpt>
      <trkpt lat="44.24414" lon="3.65768">
        <ele>1001.4</ele>
        <time>2022-08-10T09:57:45Z</time>
      </trkpt>
      <trkpt lat="44.24415" lon="3.65769">
        <ele>1002</ele>
        <time>2022-08-10T09:57:48Z</time>
      </trkpt>
      <trkpt lat="44.24416" lon="3.65772">
        <ele>1003.2</ele>
        <time>2022-08-10T09:57:52Z</time>
      </trkpt>
      <trkpt lat="44.24416" lon="3.65774">
        <ele>1003.6</ele>
        <time>2022-08-10T09:57:55Z</time>
      </trkpt>
      <trkpt lat="44.24415" lon="3.65775">
        <ele>1004.2</ele>
        <time>2022-08-10T09:58:02Z</time>
      </trkpt>
      <trkpt lat="44.24415" lon="3.65775">
        <ele>1004.6</ele>
        <time>2022-08-10T09:58:09Z</time>
      </trkpt>
      <trkpt lat="44.24415" lon="3.65776">
        <ele>1004.4</ele>
        <time>2022-08-10T09:58:23Z</time>
      </trkpt>
      <trkpt lat="44.24417" lon="3.65777">
        <ele>1004</ele>
        <time>2022-08-10T09:58:39Z</time>
      </trkpt>
      <trkpt lat="44.24417" lon="3.65778">
        <ele>1002.2</ele>
        <time>2022-08-10T09:58:45Z</time>
      </trkpt>
      <trkpt lat="44.24417" lon="3.65778">
        <ele>1000.2</ele>
        <time>2022-08-10T09:58:46Z</time>
      </trkpt>
      <trkpt lat="44.24417" lon="3.65778">
        <ele>997.8</ele>
        <time>2022-08-10T09:58:47Z</time>
      </trkpt>
      <trkpt lat="44.24417" lon="3.65778">
        <ele>996.8</ele>
        <time>2022-08-10T09:58:48Z</time>
      </trkpt>
      <trkpt lat="44.24417" lon="3.65777">
        <ele>996.4</ele>
        <time>2022-08-10T09:58:52Z</time>
      </trkpt>
      <trkpt lat="44.24417" lon="3.65777">
        <ele>998.8</ele>
        <time>2022-08-10T09:58:54Z</time>
      </trkpt>
      <trkpt lat="44.24417" lon="3.65777">
        <ele>1002.2</ele>
        <time>2022-08-10T09:58:55Z</time>
      </trkpt>
      <trkpt lat="44.24417" lon="3.65777">
        <ele>1003.2</ele>
        <time>2022-08-10T09:58:58Z</time>
      </trkpt>
      <trkpt lat="44.24417" lon="3.65778">
        <ele>1004</ele>
        <time>2022-08-10T09:59:06Z</time>
      </trkpt>
      <trkpt lat="44.24418" lon="3.65777">
        <ele>1004.2</ele>
        <time>2022-08-10T09:59:12Z</time>
      </trkpt>
      <trkpt lat="44.24418" lon="3.65778">
        <ele>1004.6</ele>
        <time>2022-08-10T09:59:22Z</time>
      </trkpt>
      <trkpt lat="44.24418" lon="3.65778">
        <ele>1004.6</ele>
        <time>2022-08-10T09:59:32Z</time>
      </trkpt>
      <trkpt lat="44.24417" lon="3.65776">
        <ele>1004.4</ele>
        <time>2022-08-10T09:59:45Z</time>
      </trkpt>
      <trkpt lat="44.24418" lon="3.65779">
        <ele>1003.2</ele>
        <time>2022-08-10T09:59:57Z</time>
      </trkpt>
      <trkpt lat="44.24418" lon="3.65781">
        <ele>1003.2</ele>
        <time>2022-08-10T10:00:00Z</time>
      </trkpt>
      <trkpt lat="44.24417" lon="3.65782">
        <ele>1002.8</ele>
        <time>2022-08-10T10:00:09Z</time>
      </trkpt>
      <trkpt lat="44.24415" lon="3.65785">
        <ele>1002.2</ele>
        <time>2022-08-10T10:00:15Z</time>
      </trkpt>
      <trkpt lat="44.24415" lon="3.65789">
        <ele>1001.6</ele>
        <time>2022-08-10T10:00:21Z</time>
      </trkpt>
      <trkpt lat="44.24414" lon="3.65789">
        <ele>1000.8</ele>
        <time>2022-08-10T10:00:25Z</time>
      </trkpt>
      <trkpt lat="44.24413" lon="3.65789">
        <ele>1000.6</ele>
        <time>2022-08-10T10:00:30Z</time>
      </trkpt>
      <trkpt lat="44.24417" lon="3.65793">
        <ele>999.8</ele>
        <time>2022-08-10T10:00:41Z</time>
      </trkpt>
      <trkpt lat="44.24419" lon="3.65796">
        <ele>998.8</ele>
        <time>2022-08-10T10:00:47Z</time>
      </trkpt>
      <trkpt lat="44.2442" lon="3.65797">
        <ele>998.6</ele>
        <time>2022-08-10T10:00:48Z</time>
      </trkpt>
      <trkpt lat="44.24423" lon="3.65798">
        <ele>997.6</ele>
        <time>2022-08-10T10:00:56Z</time>
      </trkpt>
      <trkpt lat="44.24423" lon="3.65797">
        <ele>998</ele>
        <time>2022-08-10T10:01:08Z</time>
      </trkpt>
      <trkpt lat="44.24428" lon="3.6579">
        <ele>998.6</ele>
        <time>2022-08-10T10:01:15Z</time>
      </trkpt>
      <trkpt lat="44.24429" lon="3.65786">
        <ele>998.8</ele>
        <time>2022-08-10T10:01:18Z</time>
      </trkpt>
      <trkpt lat="44.24428" lon="3.65772">
        <ele>998.6</ele>
        <time>2022-08-10T10:01:28Z</time>
      </trkpt>
      <trkpt lat="44.24421" lon="3.65757">
        <ele>998.4</ele>
        <time>2022-08-10T10:01:42Z</time>
      </trkpt>
      <trkpt lat="44.2442" lon="3.65754">
        <ele>997.6</ele>
        <time>2022-08-10T10:01:45Z</time>
      </trkpt>
      <trkpt lat="44.24423" lon="3.65748">
        <ele>997</ele>
        <time>2022-08-10T10:01:52Z</time>
      </trkpt>
      <trkpt lat="44.24423" lon="3.65747">
        <ele>997.2</ele>
        <time>2022-08-10T10:01:56Z</time>
      </trkpt>
      <trkpt lat="44.24425" lon="3.65745">
        <ele>997.6</ele>
        <time>2022-08-10T10:02:01Z</time>
      </trkpt>
      <trkpt lat="44.24428" lon="3.65743">
        <ele>997</ele>
        <time>2022-08-10T10:02:12Z</time>
      </trkpt>
      <trkpt lat="44.24427" lon="3.65744">
        <ele>997.8</ele>
        <time>2022-08-10T10:02:27Z</time>
      </trkpt>
      <trkpt lat="44.24427" lon="3.65743">
        <ele>997</ele>
        <time>2022-08-10T10:02:41Z</time>
      </trkpt>
      <trkpt lat="44.24428" lon="3.65743">
        <ele>997</ele>
        <time>2022-08-10T10:02:51Z</time>
      </trkpt>
      <trkpt lat="44.24436" lon="3.65737">
        <ele>997.2</ele>
        <time>2022-08-10T10:03:00Z</time>
      </trkpt>
      <trkpt lat="44.24441" lon="3.65733">
        <ele>996.6</ele>
        <time>2022-08-10T10:03:06Z</time>
      </trkpt>
      <trkpt lat="44.2445" lon="3.65722">
        <ele>996</ele>
        <time>2022-08-10T10:03:16Z</time>
      </trkpt>
      <trkpt lat="44.24451" lon="3.65721">
        <ele>996</ele>
        <time>2022-08-10T10:03:19Z</time>
      </trkpt>
      <trkpt lat="44.24453" lon="3.65717">
        <ele>995.8</ele>
        <time>2022-08-10T10:03:23Z</time>
      </trkpt>
      <trkpt lat="44.24455" lon="3.65714">
        <ele>995.4</ele>
        <time>2022-08-10T10:03:26Z</time>
      </trkpt>
      <trkpt lat="44.24461" lon="3.65703">
        <ele>995.4</ele>
        <time>2022-08-10T10:03:37Z</time>
      </trkpt>
      <trkpt lat="44.24468" lon="3.65692">
        <ele>995.2</ele>
        <time>2022-08-10T10:03:48Z</time>
      </trkpt>
      <trkpt lat="44.24469" lon="3.65691">
        <ele>995</ele>
        <time>2022-08-10T10:03:52Z</time>
      </trkpt>
      <trkpt lat="44.24471" lon="3.65692">
        <ele>995.2</ele>
        <time>2022-08-10T10:03:57Z</time>
      </trkpt>
      <trkpt lat="44.24476" lon="3.65685">
        <ele>994.4</ele>
        <time>2022-08-10T10:04:06Z</time>
      </trkpt>
      <trkpt lat="44.24484" lon="3.65668">
        <ele>993.8</ele>
        <time>2022-08-10T10:04:21Z</time>
      </trkpt>
      <trkpt lat="44.24485" lon="3.65663">
        <ele>993.4</ele>
        <time>2022-08-10T10:04:25Z</time>
      </trkpt>
      <trkpt lat="44.24489" lon="3.6565">
        <ele>992.8</ele>
        <time>2022-08-10T10:04:35Z</time>
      </trkpt>
      <trkpt lat="44.24498" lon="3.65635">
        <ele>992.6</ele>
        <time>2022-08-10T10:04:48Z</time>
      </trkpt>
      <trkpt lat="44.24505" lon="3.65627">
        <ele>993.4</ele>
        <time>2022-08-10T10:05:00Z</time>
      </trkpt>
      <trkpt lat="44.24507" lon="3.65625">
        <ele>994</ele>
        <time>2022-08-10T10:05:04Z</time>
      </trkpt>
      <trkpt lat="44.24507" lon="3.65625">
        <ele>994.4</ele>
        <time>2022-08-10T10:05:06Z</time>
      </trkpt>
      <trkpt lat="44.24508" lon="3.65624">
        <ele>994.6</ele>
        <time>2022-08-10T10:05:07Z</time>
      </trkpt>
      <trkpt lat="44.24509" lon="3.65627">
        <ele>995.4</ele>
        <time>2022-08-10T10:05:11Z</time>
      </trkpt>
      <trkpt lat="44.24509" lon="3.65629">
        <ele>995.6</ele>
        <time>2022-08-10T10:05:13Z</time>
      </trkpt>
      <trkpt lat="44.24509" lon="3.65638">
        <ele>996.2</ele>
        <time>2022-08-10T10:05:21Z</time>
      </trkpt>
      <trkpt lat="44.24508" lon="3.6564">
        <ele>996.6</ele>
        <time>2022-08-10T10:05:24Z</time>
      </trkpt>
      <trkpt lat="44.24504" lon="3.65646">
        <ele>997</ele>
        <time>2022-08-10T10:05:31Z</time>
      </trkpt>
      <trkpt lat="44.24499" lon="3.65652">
        <ele>997.6</ele>
        <time>2022-08-10T10:05:43Z</time>
      </trkpt>
      <trkpt lat="44.24502" lon="3.65652">
        <ele>997.6</ele>
        <time>2022-08-10T10:05:51Z</time>
      </trkpt>
      <trkpt lat="44.24502" lon="3.65644">
        <ele>998</ele>
        <time>2022-08-10T10:06:03Z</time>
      </trkpt>
      <trkpt lat="44.24502" lon="3.65646">
        <ele>997.8</ele>
        <time>2022-08-10T10:06:14Z</time>
      </trkpt>
      <trkpt lat="44.24505" lon="3.65642">
        <ele>997</ele>
        <time>2022-08-10T10:06:24Z</time>
      </trkpt>
      <trkpt lat="44.24504" lon="3.65637">
        <ele>996.8</ele>
        <time>2022-08-10T10:06:40Z</time>
      </trkpt>
      <trkpt lat="44.24504" lon="3.65636">
        <ele>996.6</ele>
        <time>2022-08-10T10:06:50Z</time>
      </trkpt>
      <trkpt lat="44.24512" lon="3.65633">
        <ele>996.4</ele>
        <time>2022-08-10T10:06:59Z</time>
      </trkpt>
      <trkpt lat="44.24514" lon="3.65632">
        <ele>996.2</ele>
        <time>2022-08-10T10:07:02Z</time>
      </trkpt>
      <trkpt lat="44.24517" lon="3.65629">
        <ele>996</ele>
        <time>2022-08-10T10:07:05Z</time>
      </trkpt>
      <trkpt lat="44.2452" lon="3.65623">
        <ele>995.8</ele>
        <time>2022-08-10T10:07:10Z</time>
      </trkpt>
      <trkpt lat="44.24529" lon="3.6561">
        <ele>995.6</ele>
        <time>2022-08-10T10:07:25Z</time>
      </trkpt>
      <trkpt lat="44.24529" lon="3.65608">
        <ele>995.6</ele>
        <time>2022-08-10T10:07:31Z</time>
      </trkpt>
      <trkpt lat="44.24531" lon="3.65605">
        <ele>995.2</ele>
        <time>2022-08-10T10:07:36Z</time>
      </trkpt>
      <trkpt lat="44.24534" lon="3.65597">
        <ele>995.8</ele>
        <time>2022-08-10T10:07:48Z</time>
      </trkpt>
      <trkpt lat="44.24536" lon="3.65596">
        <ele>995</ele>
        <time>2022-08-10T10:07:52Z</time>
      </trkpt>
      <trkpt lat="44.24538" lon="3.65597">
        <ele>994.4</ele>
        <time>2022-08-10T10:08:06Z</time>
      </trkpt>
      <trkpt lat="44.24538" lon="3.65597">
        <ele>994.4</ele>
        <time>2022-08-10T10:08:08Z</time>
      </trkpt>
      <trkpt lat="44.24535" lon="3.65597">
        <ele>995</ele>
        <time>2022-08-10T10:08:23Z</time>
      </trkpt>
      <trkpt lat="44.24534" lon="3.65598">
        <ele>995.6</ele>
        <time>2022-08-10T10:08:26Z</time>
      </trkpt>
      <trkpt lat="44.24531" lon="3.65601">
        <ele>995.6</ele>
        <time>2022-08-10T10:08:36Z</time>
      </trkpt>
      <trkpt lat="44.24531" lon="3.65599">
        <ele>995</ele>
        <time>2022-08-10T10:08:52Z</time>
      </trkpt>
      <trkpt lat="44.24532" lon="3.65598">
        <ele>994.6</ele>
        <time>2022-08-10T10:09:05Z</time>
      </trkpt>
      <trkpt lat="44.24533" lon="3.65598">
        <ele>994.6</ele>
        <time>2022-08-10T10:09:06Z</time>
      </trkpt>
      <trkpt lat="44.24537" lon="3.65594">
        <ele>994.2</ele>
        <time>2022-08-10T10:09:18Z</time>
      </trkpt>
      <trkpt lat="44.24537" lon="3.65593">
        <ele>994.2</ele>
        <time>2022-08-10T10:09:19Z</time>
      </trkpt>
      <trkpt lat="44.24537" lon="3.65592">
        <ele>995.6</ele>
        <time>2022-08-10T10:09:26Z</time>
      </trkpt>
      <trkpt lat="44.24541" lon="3.6559">
        <ele>995.2</ele>
        <time>2022-08-10T10:09:32Z</time>
      </trkpt>
      <trkpt lat="44.24544" lon="3.65589">
        <ele>994.6</ele>
        <time>2022-08-10T10:09:36Z</time>
      </trkpt>
      <trkpt lat="44.2455" lon="3.65582">
        <ele>993.8</ele>
        <time>2022-08-10T10:09:44Z</time>
      </trkpt>
      <trkpt lat="44.24552" lon="3.65579">
        <ele>993.6</ele>
        <time>2022-08-10T10:09:48Z</time>
      </trkpt>
      <trkpt lat="44.24556" lon="3.65572">
        <ele>992.8</ele>
        <time>2022-08-10T10:09:56Z</time>
      </trkpt>
      <trkpt lat="44.24556" lon="3.65572">
        <ele>992.8</ele>
        <time>2022-08-10T10:09:57Z</time>
      </trkpt>
      <trkpt lat="44.24561" lon="3.65572">
        <ele>993</ele>
        <time>2022-08-10T10:10:03Z</time>
      </trkpt>
      <trkpt lat="44.24564" lon="3.65573">
        <ele>992.8</ele>
        <time>2022-08-10T10:10:06Z</time>
      </trkpt>
      <trkpt lat="44.24569" lon="3.65573">
        <ele>992.4</ele>
        <time>2022-08-10T10:10:12Z</time>
      </trkpt>
      <trkpt lat="44.24575" lon="3.6557">
        <ele>992.2</ele>
        <time>2022-08-10T10:10:18Z</time>
      </trkpt>
      <trkpt lat="44.24575" lon="3.6557">
        <ele>992</ele>
        <time>2022-08-10T10:10:21Z</time>
      </trkpt>
      <trkpt lat="44.24578" lon="3.65567">
        <ele>991.4</ele>
        <time>2022-08-10T10:10:26Z</time>
      </trkpt>
      <trkpt lat="44.2458" lon="3.65565">
        <ele>991.4</ele>
        <time>2022-08-10T10:10:28Z</time>
      </trkpt>
      <trkpt lat="44.24582" lon="3.65556">
        <ele>992.6</ele>
        <time>2022-08-10T10:10:37Z</time>
      </trkpt>
      <trkpt lat="44.24583" lon="3.65554">
        <ele>993</ele>
        <time>2022-08-10T10:10:40Z</time>
      </trkpt>
      <trkpt lat="44.24584" lon="3.6555">
        <ele>993</ele>
        <time>2022-08-10T10:10:45Z</time>
      </trkpt>
      <trkpt lat="44.24584" lon="3.6555">
        <ele>993.6</ele>
        <time>2022-08-10T10:10:47Z</time>
      </trkpt>
      <trkpt lat="44.24586" lon="3.65546">
        <ele>993.4</ele>
        <time>2022-08-10T10:10:55Z</time>
      </trkpt>
      <trkpt lat="44.24596" lon="3.65532">
        <ele>993.2</ele>
        <time>2022-08-10T10:11:07Z</time>
      </trkpt>
      <trkpt lat="44.24604" lon="3.6552">
        <ele>992.6</ele>
        <time>2022-08-10T10:11:18Z</time>
      </trkpt>
      <trkpt lat="44.24609" lon="3.65517">
        <ele>992.4</ele>
        <time>2022-08-10T10:11:22Z</time>
      </trkpt>
      <trkpt lat="44.24619" lon="3.655">
        <ele>991.2</ele>
        <time>2022-08-10T10:11:38Z</time>
      </trkpt>
      <trkpt lat="44.24627" lon="3.65492">
        <ele>989.8</ele>
        <time>2022-08-10T10:11:48Z</time>
      </trkpt>
      <trkpt lat="44.24632" lon="3.65489">
        <ele>989.6</ele>
        <time>2022-08-10T10:11:52Z</time>
      </trkpt>
      <trkpt lat="44.24639" lon="3.65479">
        <ele>989</ele>
        <time>2022-08-10T10:12:04Z</time>
      </trkpt>
      <trkpt lat="44.24641" lon="3.65477">
        <ele>988.8</ele>
        <time>2022-08-10T10:12:06Z</time>
      </trkpt>
      <trkpt lat="44.24647" lon="3.65465">
        <ele>988.2</ele>
        <time>2022-08-10T10:12:18Z</time>
      </trkpt>
      <trkpt lat="44.24648" lon="3.65456">
        <ele>988.2</ele>
        <time>2022-08-10T10:12:27Z</time>
      </trkpt>
      <trkpt lat="44.24648" lon="3.65455">
        <ele>988.4</ele>
        <time>2022-08-10T10:12:29Z</time>
      </trkpt>
      <trkpt lat="44.24648" lon="3.65455">
        <ele>988.4</ele>
        <time>2022-08-10T10:12:30Z</time>
      </trkpt>
      <trkpt lat="44.24642" lon="3.6545">
        <ele>989.8</ele>
        <time>2022-08-10T10:12:41Z</time>
      </trkpt>
      <trkpt lat="44.24641" lon="3.65449">
        <ele>989.8</ele>
        <time>2022-08-10T10:12:42Z</time>
      </trkpt>
      <trkpt lat="44.24641" lon="3.65447">
        <ele>991</ele>
        <time>2022-08-10T10:12:46Z</time>
      </trkpt>
      <trkpt lat="44.24644" lon="3.65445">
        <ele>992</ele>
        <time>2022-08-10T10:12:53Z</time>
      </trkpt>
      <trkpt lat="44.24646" lon="3.65441">
        <ele>993</ele>
        <time>2022-08-10T10:13:01Z</time>
      </trkpt>
      <trkpt lat="44.24649" lon="3.65436">
        <ele>993.6</ele>
        <time>2022-08-10T10:13:07Z</time>
      </trkpt>
      <trkpt lat="44.24648" lon="3.65434">
        <ele>979</ele>
        <time>2022-08-10T10:13:11Z</time>
      </trkpt>
      <trkpt lat="44.24648" lon="3.65434">
        <ele>971.2</ele>
        <time>2022-08-10T10:13:12Z</time>
      </trkpt>
      <trkpt lat="44.24648" lon="3.65433">
        <ele>967.2</ele>
        <time>2022-08-10T10:13:13Z</time>
      </trkpt>
      <trkpt lat="44.24649" lon="3.65433">
        <ele>965.2</ele>
        <time>2022-08-10T10:13:14Z</time>
      </trkpt>
      <trkpt lat="44.24651" lon="3.65431">
        <ele>978.4</ele>
        <time>2022-08-10T10:13:16Z</time>
      </trkpt>
      <trkpt lat="44.24652" lon="3.6543">
        <ele>985.8</ele>
        <time>2022-08-10T10:13:17Z</time>
      </trkpt>
      <trkpt lat="44.24653" lon="3.65429">
        <ele>989.6</ele>
        <time>2022-08-10T10:13:18Z</time>
      </trkpt>
      <trkpt lat="44.24653" lon="3.65429">
        <ele>991.4</ele>
        <time>2022-08-10T10:13:19Z</time>
      </trkpt>
      <trkpt lat="44.24654" lon="3.65428">
        <ele>993</ele>
        <time>2022-08-10T10:13:21Z</time>
      </trkpt>
      <trkpt lat="44.24659" lon="3.65425">
        <ele>993.4</ele>
        <time>2022-08-10T10:13:28Z</time>
      </trkpt>
      <trkpt lat="44.24662" lon="3.65424">
        <ele>993.2</ele>
        <time>2022-08-10T10:13:30Z</time>
      </trkpt>
      <trkpt lat="44.24672" lon="3.65417">
        <ele>992.2</ele>
        <time>2022-08-10T10:13:39Z</time>
      </trkpt>
      <trkpt lat="44.24668" lon="3.65408">
        <ele>993.4</ele>
        <time>2022-08-10T10:13:46Z</time>
      </trkpt>
      <trkpt lat="44.24668" lon="3.65407">
        <ele>993.6</ele>
        <time>2022-08-10T10:13:48Z</time>
      </trkpt>
      <trkpt lat="44.24666" lon="3.65407">
        <ele>994</ele>
        <time>2022-08-10T10:13:51Z</time>
      </trkpt>
      <trkpt lat="44.24663" lon="3.65408">
        <ele>995.2</ele>
        <time>2022-08-10T10:13:57Z</time>
      </trkpt>
      <trkpt lat="44.24662" lon="3.65408">
        <ele>996.2</ele>
        <time>2022-08-10T10:13:59Z</time>
      </trkpt>
      <trkpt lat="44.24661" lon="3.6541">
        <ele>997.2</ele>
        <time>2022-08-10T10:14:10Z</time>
      </trkpt>
      <trkpt lat="44.2466" lon="3.6541">
        <ele>997.4</ele>
        <time>2022-08-10T10:14:11Z</time>
      </trkpt>
      <trkpt lat="44.2466" lon="3.6541">
        <ele>996.4</ele>
        <time>2022-08-10T10:14:16Z</time>
      </trkpt>
      <trkpt lat="44.2466" lon="3.6541">
        <ele>996.4</ele>
        <time>2022-08-10T10:14:22Z</time>
      </trkpt>
      <trkpt lat="44.2466" lon="3.6541">
        <ele>996</ele>
        <time>2022-08-10T10:14:35Z</time>
      </trkpt>
      <trkpt lat="44.2466" lon="3.6541">
        <ele>988.4</ele>
        <time>2022-08-10T10:14:36Z</time>
      </trkpt>
      <trkpt lat="44.2466" lon="3.6541">
        <ele>978</ele>
        <time>2022-08-10T10:14:38Z</time>
      </trkpt>
      <trkpt lat="44.2466" lon="3.6541">
        <ele>972.6</ele>
        <time>2022-08-10T10:14:39Z</time>
      </trkpt>
      <trkpt lat="44.2466" lon="3.6541">
        <ele>970</ele>
        <time>2022-08-10T10:14:40Z</time>
      </trkpt>
      <trkpt lat="44.2466" lon="3.65411">
        <ele>973.4</ele>
        <time>2022-08-10T10:14:42Z</time>
      </trkpt>
      <trkpt lat="44.24659" lon="3.65411">
        <ele>975.2</ele>
        <time>2022-08-10T10:14:43Z</time>
      </trkpt>
      <trkpt lat="44.24659" lon="3.65412">
        <ele>973.2</ele>
        <time>2022-08-10T10:14:44Z</time>
      </trkpt>
      <trkpt lat="44.24659" lon="3.65413">
        <ele>971.4</ele>
        <time>2022-08-10T10:14:46Z</time>
      </trkpt>
      <trkpt lat="44.24659" lon="3.65414">
        <ele>970.2</ele>
        <time>2022-08-10T10:14:47Z</time>
      </trkpt>
      <trkpt lat="44.24658" lon="3.65414">
        <ele>968.6</ele>
        <time>2022-08-10T10:14:48Z</time>
      </trkpt>
      <trkpt lat="44.24657" lon="3.65414">
        <ele>965.4</ele>
        <time>2022-08-10T10:14:49Z</time>
      </trkpt>
      <trkpt lat="44.24657" lon="3.65414">
        <ele>963.6</ele>
        <time>2022-08-10T10:14:50Z</time>
      </trkpt>
      <trkpt lat="44.24656" lon="3.65414">
        <ele>964.8</ele>
        <time>2022-08-10T10:14:52Z</time>
      </trkpt>
      <trkpt lat="44.24656" lon="3.65414">
        <ele>970.2</ele>
        <time>2022-08-10T10:14:53Z</time>
      </trkpt>
      <trkpt lat="44.24656" lon="3.65414">
        <ele>979</ele>
        <time>2022-08-10T10:14:54Z</time>
      </trkpt>
      <trkpt lat="44.24656" lon="3.65414">
        <ele>983.4</ele>
        <time>2022-08-10T10:14:55Z</time>
      </trkpt>
      <trkpt lat="44.24656" lon="3.65415">
        <ele>985.6</ele>
        <time>2022-08-10T10:14:56Z</time>
      </trkpt>
      <trkpt lat="44.24656" lon="3.65416">
        <ele>986.8</ele>
        <time>2022-08-10T10:14:57Z</time>
      </trkpt>
      <trkpt lat="44.24655" lon="3.65416">
        <ele>979.4</ele>
        <time>2022-08-10T10:14:58Z</time>
      </trkpt>
      <trkpt lat="44.24655" lon="3.65417">
        <ele>975.4</ele>
        <time>2022-08-10T10:14:59Z</time>
      </trkpt>
      <trkpt lat="44.24654" lon="3.65418">
        <ele>971</ele>
        <time>2022-08-10T10:15:00Z</time>
      </trkpt>
      <trkpt lat="44.24654" lon="3.65418">
        <ele>967.4</ele>
        <time>2022-08-10T10:15:01Z</time>
      </trkpt>
      <trkpt lat="44.24655" lon="3.6542">
        <ele>969.2</ele>
        <time>2022-08-10T10:15:03Z</time>
      </trkpt>
      <trkpt lat="44.24655" lon="3.6542">
        <ele>976</ele>
        <time>2022-08-10T10:15:04Z</time>
      </trkpt>
      <trkpt lat="44.24654" lon="3.6542">
        <ele>980.6</ele>
        <time>2022-08-10T10:15:05Z</time>
      </trkpt>
      <trkpt lat="44.24654" lon="3.6542">
        <ele>983</ele>
        <time>2022-08-10T10:15:06Z</time>
      </trkpt>
      <trkpt lat="44.24654" lon="3.6542">
        <ele>984.2</ele>
        <time>2022-08-10T10:15:07Z</time>
      </trkpt>
      <trkpt lat="44.24654" lon="3.6542">
        <ele>984.6</ele>
        <time>2022-08-10T10:15:09Z</time>
      </trkpt>
      <trkpt lat="44.24655" lon="3.65419">
        <ele>990.2</ele>
        <time>2022-08-10T10:15:13Z</time>
      </trkpt>
      <trkpt lat="44.24656" lon="3.65418">
        <ele>993.2</ele>
        <time>2022-08-10T10:15:14Z</time>
      </trkpt>
      <trkpt lat="44.24656" lon="3.65417">
        <ele>994.8</ele>
        <time>2022-08-10T10:15:15Z</time>
      </trkpt>
      <trkpt lat="44.24657" lon="3.65417">
        <ele>995.8</ele>
        <time>2022-08-10T10:15:16Z</time>
      </trkpt>
      <trkpt lat="44.24657" lon="3.65416">
        <ele>996.2</ele>
        <time>2022-08-10T10:15:17Z</time>
      </trkpt>
      <trkpt lat="44.24658" lon="3.65414">
        <ele>1002.4</ele>
        <time>2022-08-10T10:15:23Z</time>
      </trkpt>
      <trkpt lat="44.24658" lon="3.65414">
        <ele>1009.8</ele>
        <time>2022-08-10T10:15:24Z</time>
      </trkpt>
      <trkpt lat="44.24658" lon="3.65413">
        <ele>1015</ele>
        <time>2022-08-10T10:15:25Z</time>
      </trkpt>
      <trkpt lat="44.24659" lon="3.65413">
        <ele>1016.4</ele>
        <time>2022-08-10T10:15:26Z</time>
      </trkpt>
      <trkpt lat="44.24659" lon="3.65412">
        <ele>1012.2</ele>
        <time>2022-08-10T10:15:27Z</time>
      </trkpt>
      <trkpt lat="44.24659" lon="3.65412">
        <ele>1005</ele>
        <time>2022-08-10T10:15:28Z</time>
      </trkpt>
      <trkpt lat="44.24659" lon="3.65412">
        <ele>1001</ele>
        <time>2022-08-10T10:15:29Z</time>
      </trkpt>
      <trkpt lat="44.24659" lon="3.65411">
        <ele>999</ele>
        <time>2022-08-10T10:15:30Z</time>
      </trkpt>
      <trkpt lat="44.24659" lon="3.65411">
        <ele>998</ele>
        <time>2022-08-10T10:15:31Z</time>
      </trkpt>
      <trkpt lat="44.24659" lon="3.65411">
        <ele>997</ele>
        <time>2022-08-10T10:15:34Z</time>
      </trkpt>
      <trkpt lat="44.24659" lon="3.65411">
        <ele>996.8</ele>
        <time>2022-08-10T10:15:37Z</time>
      </trkpt>
      <trkpt lat="44.24659" lon="3.65417">
        <ele>997</ele>
        <time>2022-08-10T10:15:45Z</time>
      </trkpt>
      <trkpt lat="44.2466" lon="3.65412">
        <ele>996.6</ele>
        <time>2022-08-10T10:15:56Z</time>
      </trkpt>
      <trkpt lat="44.24661" lon="3.65409">
        <ele>996</ele>
        <time>2022-08-10T10:16:00Z</time>
      </trkpt>
      <trkpt lat="44.24661" lon="3.65409">
        <ele>996</ele>
        <time>2022-08-10T10:16:07Z</time>
      </trkpt>
      <trkpt lat="44.24661" lon="3.65411">
        <ele>996</ele>
        <time>2022-08-10T10:16:22Z</time>
      </trkpt>
      <trkpt lat="44.24662" lon="3.65412">
        <ele>995.8</ele>
        <time>2022-08-10T10:16:39Z</time>
      </trkpt>
      <trkpt lat="44.24662" lon="3.65411">
        <ele>995.8</ele>
        <time>2022-08-10T10:16:51Z</time>
      </trkpt>
      <trkpt lat="44.24662" lon="3.6541">
        <ele>996.2</ele>
        <time>2022-08-10T10:17:06Z</time>
      </trkpt>
      <trkpt lat="44.24666" lon="3.65406">
        <ele>995</ele>
        <time>2022-08-10T10:17:16Z</time>
      </trkpt>
      <trkpt lat="44.24667" lon="3.65406">
        <ele>994.8</ele>
        <time>2022-08-10T10:17:17Z</time>
      </trkpt>
      <trkpt lat="44.24668" lon="3.65406">
        <ele>993.6</ele>
        <time>2022-08-10T10:17:18Z</time>
      </trkpt>
      <trkpt lat="44.24673" lon="3.65403">
        <ele>993.6</ele>
        <time>2022-08-10T10:17:25Z</time>
      </trkpt>
      <trkpt lat="44.24678" lon="3.65394">
        <ele>992.4</ele>
        <time>2022-08-10T10:17:33Z</time>
      </trkpt>
      <trkpt lat="44.24681" lon="3.65392">
        <ele>992</ele>
        <time>2022-08-10T10:17:36Z</time>
      </trkpt>
      <trkpt lat="44.24684" lon="3.6539">
        <ele>991.2</ele>
        <time>2022-08-10T10:17:39Z</time>
      </trkpt>
      <trkpt lat="44.24688" lon="3.65387">
        <ele>990.2</ele>
        <time>2022-08-10T10:17:43Z</time>
      </trkpt>
      <trkpt lat="44.24689" lon="3.65384">
        <ele>990.2</ele>
        <time>2022-08-10T10:17:45Z</time>
      </trkpt>
      <trkpt lat="44.24697" lon="3.65376">
        <ele>989.6</ele>
        <time>2022-08-10T10:17:58Z</time>
      </trkpt>
      <trkpt lat="44.24699" lon="3.65375">
        <ele>989.2</ele>
        <time>2022-08-10T10:18:01Z</time>
      </trkpt>
      <trkpt lat="44.24701" lon="3.65375">
        <ele>988.2</ele>
        <time>2022-08-10T10:18:04Z</time>
      </trkpt>
      <trkpt lat="44.24701" lon="3.65376">
        <ele>988.2</ele>
        <time>2022-08-10T10:18:06Z</time>
      </trkpt>
      <trkpt lat="44.24702" lon="3.65376">
        <ele>988.2</ele>
        <time>2022-08-10T10:18:09Z</time>
      </trkpt>
      <trkpt lat="44.24706" lon="3.65374">
        <ele>987</ele>
        <time>2022-08-10T10:18:16Z</time>
      </trkpt>
      <trkpt lat="44.24707" lon="3.65373">
        <ele>986.6</ele>
        <time>2022-08-10T10:18:20Z</time>
      </trkpt>
      <trkpt lat="44.24708" lon="3.65371">
        <ele>986</ele>
        <time>2022-08-10T10:18:22Z</time>
      </trkpt>
      <trkpt lat="44.24711" lon="3.65366">
        <ele>984.8</ele>
        <time>2022-08-10T10:18:27Z</time>
      </trkpt>
      <trkpt lat="44.24712" lon="3.65361">
        <ele>984.6</ele>
        <time>2022-08-10T10:18:32Z</time>
      </trkpt>
      <trkpt lat="44.24714" lon="3.65358">
        <ele>983.8</ele>
        <time>2022-08-10T10:18:37Z</time>
      </trkpt>
      <trkpt lat="44.24717" lon="3.65355">
        <ele>983</ele>
        <time>2022-08-10T10:18:42Z</time>
      </trkpt>
      <trkpt lat="44.24718" lon="3.65353">
        <ele>982.6</ele>
        <time>2022-08-10T10:18:44Z</time>
      </trkpt>
      <trkpt lat="44.24718" lon="3.65346">
        <ele>982</ele>
        <time>2022-08-10T10:18:49Z</time>
      </trkpt>
      <trkpt lat="44.24717" lon="3.65341">
        <ele>981.6</ele>
        <time>2022-08-10T10:18:52Z</time>
      </trkpt>
      <trkpt lat="44.24717" lon="3.65339">
        <ele>980.8</ele>
        <time>2022-08-10T10:18:55Z</time>
      </trkpt>
      <trkpt lat="44.24717" lon="3.65338">
        <ele>980.8</ele>
        <time>2022-08-10T10:18:57Z</time>
      </trkpt>
      <trkpt lat="44.24716" lon="3.65338">
        <ele>980.6</ele>
        <time>2022-08-10T10:18:58Z</time>
      </trkpt>
      <trkpt lat="44.24716" lon="3.65335">
        <ele>980.4</ele>
        <time>2022-08-10T10:19:00Z</time>
      </trkpt>
      <trkpt lat="44.24714" lon="3.65332">
        <ele>981.4</ele>
        <time>2022-08-10T10:19:10Z</time>
      </trkpt>
      <trkpt lat="44.24711" lon="3.65322">
        <ele>980.2</ele>
        <time>2022-08-10T10:19:20Z</time>
      </trkpt>
      <trkpt lat="44.24709" lon="3.65322">
        <ele>980</ele>
        <time>2022-08-10T10:19:31Z</time>
      </trkpt>
      <trkpt lat="44.24712" lon="3.65325">
        <ele>980.2</ele>
        <time>2022-08-10T10:19:42Z</time>
      </trkpt>
      <trkpt lat="44.24715" lon="3.65332">
        <ele>981.2</ele>
        <time>2022-08-10T10:19:52Z</time>
      </trkpt>
      <trkpt lat="44.24715" lon="3.65334">
        <ele>981.2</ele>
        <time>2022-08-10T10:20:06Z</time>
      </trkpt>
      <trkpt lat="44.24715" lon="3.65331">
        <ele>981</ele>
        <time>2022-08-10T10:20:23Z</time>
      </trkpt>
      <trkpt lat="44.24714" lon="3.65329">
        <ele>981</ele>
        <time>2022-08-10T10:20:31Z</time>
      </trkpt>
      <trkpt lat="44.24714" lon="3.65329">
        <ele>973</ele>
        <time>2022-08-10T10:20:35Z</time>
      </trkpt>
      <trkpt lat="44.24714" lon="3.65329">
        <ele>946.4</ele>
        <time>2022-08-10T10:20:36Z</time>
      </trkpt>
      <trkpt lat="44.24714" lon="3.65329">
        <ele>932.8</ele>
        <time>2022-08-10T10:20:37Z</time>
      </trkpt>
      <trkpt lat="44.24714" lon="3.65329">
        <ele>925.8</ele>
        <time>2022-08-10T10:20:38Z</time>
      </trkpt>
      <trkpt lat="44.24714" lon="3.6533">
        <ele>922.2</ele>
        <time>2022-08-10T10:20:39Z</time>
      </trkpt>
      <trkpt lat="44.24714" lon="3.6533">
        <ele>920.4</ele>
        <time>2022-08-10T10:20:40Z</time>
      </trkpt>
      <trkpt lat="44.24715" lon="3.6533">
        <ele>924.2</ele>
        <time>2022-08-10T10:20:42Z</time>
      </trkpt>
      <trkpt lat="44.24715" lon="3.6533">
        <ele>935</ele>
        <time>2022-08-10T10:20:43Z</time>
      </trkpt>
      <trkpt lat="44.24715" lon="3.6533">
        <ele>956.8</ele>
        <time>2022-08-10T10:20:44Z</time>
      </trkpt>
      <trkpt lat="44.24715" lon="3.6533">
        <ele>968</ele>
        <time>2022-08-10T10:20:45Z</time>
      </trkpt>
      <trkpt lat="44.24715" lon="3.6533">
        <ele>973.8</ele>
        <time>2022-08-10T10:20:46Z</time>
      </trkpt>
      <trkpt lat="44.24715" lon="3.6533">
        <ele>977.2</ele>
        <time>2022-08-10T10:20:47Z</time>
      </trkpt>
      <trkpt lat="44.24715" lon="3.6533">
        <ele>979</ele>
        <time>2022-08-10T10:20:48Z</time>
      </trkpt>
      <trkpt lat="44.24715" lon="3.6533">
        <ele>979.8</ele>
        <time>2022-08-10T10:20:49Z</time>
      </trkpt>
      <trkpt lat="44.24714" lon="3.6533">
        <ele>980.4</ele>
        <time>2022-08-10T10:20:50Z</time>
      </trkpt>
      <trkpt lat="44.24716" lon="3.65331">
        <ele>980.2</ele>
        <time>2022-08-10T10:21:06Z</time>
      </trkpt>
      <trkpt lat="44.24709" lon="3.65334">
        <ele>981.6</ele>
        <time>2022-08-10T10:21:16Z</time>
      </trkpt>
      <trkpt lat="44.24706" lon="3.65334">
        <ele>982.2</ele>
        <time>2022-08-10T10:21:20Z</time>
      </trkpt>
      <trkpt lat="44.24705" lon="3.65334">
        <ele>982.4</ele>
        <time>2022-08-10T10:21:22Z</time>
      </trkpt>
      <trkpt lat="44.24702" lon="3.65337">
        <ele>982.8</ele>
        <time>2022-08-10T10:21:26Z</time>
      </trkpt>
      <trkpt lat="44.247" lon="3.65337">
        <ele>983.2</ele>
        <time>2022-08-10T10:21:29Z</time>
      </trkpt>
      <trkpt lat="44.24699" lon="3.6534">
        <ele>983.6</ele>
        <time>2022-08-10T10:21:33Z</time>
      </trkpt>
      <trkpt lat="44.24698" lon="3.65342">
        <ele>983.8</ele>
        <time>2022-08-10T10:21:35Z</time>
      </trkpt>
      <trkpt lat="44.24698" lon="3.65344">
        <ele>984</ele>
        <time>2022-08-10T10:21:37Z</time>
      </trkpt>
      <trkpt lat="44.24698" lon="3.65345">
        <ele>984.2</ele>
        <time>2022-08-10T10:21:41Z</time>
      </trkpt>
      <trkpt lat="44.24692" lon="3.65352">
        <ele>984.2</ele>
        <time>2022-08-10T10:21:51Z</time>
      </trkpt>
      <trkpt lat="44.24691" lon="3.65352">
        <ele>984.2</ele>
        <time>2022-08-10T10:21:52Z</time>
      </trkpt>
      <trkpt lat="44.24686" lon="3.65357">
        <ele>983.8</ele>
        <time>2022-08-10T10:22:03Z</time>
      </trkpt>
      <trkpt lat="44.24679" lon="3.65363">
        <ele>984.2</ele>
        <time>2022-08-10T10:22:17Z</time>
      </trkpt>
      <trkpt lat="44.24676" lon="3.65361">
        <ele>983.4</ele>
        <time>2022-08-10T10:22:30Z</time>
      </trkpt>
      <trkpt lat="44.24676" lon="3.6536">
        <ele>982.8</ele>
        <time>2022-08-10T10:22:38Z</time>
      </trkpt>
      <trkpt lat="44.24676" lon="3.6536">
        <ele>982.6</ele>
        <time>2022-08-10T10:22:45Z</time>
      </trkpt>
      <trkpt lat="44.24676" lon="3.65361">
        <ele>983</ele>
        <time>2022-08-10T10:23:06Z</time>
      </trkpt>
      <trkpt lat="44.24677" lon="3.65361">
        <ele>983.2</ele>
        <time>2022-08-10T10:23:26Z</time>
      </trkpt>
      <trkpt lat="44.24673" lon="3.65361">
        <ele>983.6</ele>
        <time>2022-08-10T10:23:43Z</time>
      </trkpt>
      <trkpt lat="44.24672" lon="3.65356">
        <ele>981.8</ele>
        <time>2022-08-10T10:23:52Z</time>
      </trkpt>
      <trkpt lat="44.24674" lon="3.65354">
        <ele>980.6</ele>
        <time>2022-08-10T10:23:57Z</time>
      </trkpt>
      <trkpt lat="44.24677" lon="3.6535">
        <ele>979.6</ele>
        <time>2022-08-10T10:24:02Z</time>
      </trkpt>
      <trkpt lat="44.24677" lon="3.65349">
        <ele>979.4</ele>
        <time>2022-08-10T10:24:03Z</time>
      </trkpt>
      <trkpt lat="44.24678" lon="3.65348">
        <ele>979</ele>
        <time>2022-08-10T10:24:06Z</time>
      </trkpt>
      <trkpt lat="44.2468" lon="3.65345">
        <ele>979</ele>
        <time>2022-08-10T10:24:12Z</time>
      </trkpt>
      <trkpt lat="44.24683" lon="3.65341">
        <ele>978.4</ele>
        <time>2022-08-10T10:24:16Z</time>
      </trkpt>
      <trkpt lat="44.24688" lon="3.65337">
        <ele>977.8</ele>
        <time>2022-08-10T10:24:24Z</time>
      </trkpt>
      <trkpt lat="44.2469" lon="3.65334">
        <ele>977.4</ele>
        <time>2022-08-10T10:24:28Z</time>
      </trkpt>
      <trkpt lat="44.24693" lon="3.65328">
        <ele>976.8</ele>
        <time>2022-08-10T10:24:35Z</time>
      </trkpt>
      <trkpt lat="44.24694" lon="3.65328">
        <ele>976.4</ele>
        <time>2022-08-10T10:24:36Z</time>
      </trkpt>
      <trkpt lat="44.24694" lon="3.65328">
        <ele>976.2</ele>
        <time>2022-08-10T10:24:37Z</time>
      </trkpt>
      <trkpt lat="44.24695" lon="3.65327">
        <ele>975.8</ele>
        <time>2022-08-10T10:24:38Z</time>
      </trkpt>
      <trkpt lat="44.24696" lon="3.65327">
        <ele>975.4</ele>
        <time>2022-08-10T10:24:40Z</time>
      </trkpt>
      <trkpt lat="44.24696" lon="3.65325">
        <ele>975.2</ele>
        <time>2022-08-10T10:24:43Z</time>
      </trkpt>
      <trkpt lat="44.247" lon="3.65318">
        <ele>974.6</ele>
        <time>2022-08-10T10:24:50Z</time>
      </trkpt>
      <trkpt lat="44.24701" lon="3.65317">
        <ele>974.2</ele>
        <time>2022-08-10T10:24:52Z</time>
      </trkpt>
      <trkpt lat="44.24703" lon="3.65314">
        <ele>973</ele>
        <time>2022-08-10T10:24:57Z</time>
      </trkpt>
      <trkpt lat="44.24702" lon="3.65313">
        <ele>972.4</ele>
        <time>2022-08-10T10:25:02Z</time>
      </trkpt>
      <trkpt lat="44.24696" lon="3.65315">
        <ele>972</ele>
        <time>2022-08-10T10:25:10Z</time>
      </trkpt>
      <trkpt lat="44.24695" lon="3.65315">
        <ele>971.8</ele>
        <time>2022-08-10T10:25:11Z</time>
      </trkpt>
      <trkpt lat="44.2469" lon="3.65316">
        <ele>970.8</ele>
        <time>2022-08-10T10:25:17Z</time>
      </trkpt>
      <trkpt lat="44.24685" lon="3.65316">
        <ele>970</ele>
        <time>2022-08-10T10:25:23Z</time>
      </trkpt>
      <trkpt lat="44.24685" lon="3.65315">
        <ele>970</ele>
        <time>2022-08-10T10:25:24Z</time>
      </trkpt>
      <trkpt lat="44.24685" lon="3.65315">
        <ele>969.6</ele>
        <time>2022-08-10T10:25:26Z</time>
      </trkpt>
      <trkpt lat="44.24687" lon="3.65311">
        <ele>968.8</ele>
        <time>2022-08-10T10:25:35Z</time>
      </trkpt>
      <trkpt lat="44.24688" lon="3.65311">
        <ele>968.6</ele>
        <time>2022-08-10T10:25:36Z</time>
      </trkpt>
      <trkpt lat="44.24689" lon="3.65307">
        <ele>967.6</ele>
        <time>2022-08-10T10:25:42Z</time>
      </trkpt>
      <trkpt lat="44.24691" lon="3.65304">
        <ele>966.6</ele>
        <time>2022-08-10T10:25:46Z</time>
      </trkpt>
      <trkpt lat="44.24692" lon="3.65303">
        <ele>966.4</ele>
        <time>2022-08-10T10:25:47Z</time>
      </trkpt>
      <trkpt lat="44.24693" lon="3.65299">
        <ele>965.4</ele>
        <time>2022-08-10T10:25:52Z</time>
      </trkpt>
      <trkpt lat="44.24693" lon="3.65296">
        <ele>964.6</ele>
        <time>2022-08-10T10:25:57Z</time>
      </trkpt>
      <trkpt lat="44.24694" lon="3.65294">
        <ele>964.4</ele>
        <time>2022-08-10T10:26:00Z</time>
      </trkpt>
      <trkpt lat="44.24696" lon="3.65291">
        <ele>963.2</ele>
        <time>2022-08-10T10:26:05Z</time>
      </trkpt>
      <trkpt lat="44.24701" lon="3.65289">
        <ele>962</ele>
        <time>2022-08-10T10:26:11Z</time>
      </trkpt>
      <trkpt lat="44.24703" lon="3.65288">
        <ele>961.6</ele>
        <time>2022-08-10T10:26:13Z</time>
      </trkpt>
      <trkpt lat="44.24707" lon="3.65285">
        <ele>961</ele>
        <time>2022-08-10T10:26:19Z</time>
      </trkpt>
      <trkpt lat="44.24708" lon="3.65285">
        <ele>960.8</ele>
        <time>2022-08-10T10:26:20Z</time>
      </trkpt>
      <trkpt lat="44.24709" lon="3.65286">
        <ele>960.6</ele>
        <time>2022-08-10T10:26:22Z</time>
      </trkpt>
      <trkpt lat="44.24709" lon="3.65285">
        <ele>960.4</ele>
        <time>2022-08-10T10:26:24Z</time>
      </trkpt>
      <trkpt lat="44.24711" lon="3.65284">
        <ele>959.8</ele>
        <time>2022-08-10T10:26:28Z</time>
      </trkpt>
      <trkpt lat="44.24714" lon="3.65282">
        <ele>958.6</ele>
        <time>2022-08-10T10:26:32Z</time>
      </trkpt>
      <trkpt lat="44.24714" lon="3.65281">
        <ele>958.2</ele>
        <time>2022-08-10T10:26:36Z</time>
      </trkpt>
      <trkpt lat="44.24718" lon="3.65279">
        <ele>957.8</ele>
        <time>2022-08-10T10:26:45Z</time>
      </trkpt>
      <trkpt lat="44.24719" lon="3.65279">
        <ele>957.4</ele>
        <time>2022-08-10T10:26:46Z</time>
      </trkpt>
      <trkpt lat="44.24721" lon="3.65276">
        <ele>956.2</ele>
        <time>2022-08-10T10:26:53Z</time>
      </trkpt>
      <trkpt lat="44.2472" lon="3.65274">
        <ele>956</ele>
        <time>2022-08-10T10:26:55Z</time>
      </trkpt>
      <trkpt lat="44.2472" lon="3.6527">
        <ele>955</ele>
        <time>2022-08-10T10:26:59Z</time>
      </trkpt>
      <trkpt lat="44.24722" lon="3.6527">
        <ele>953.8</ele>
        <time>2022-08-10T10:27:03Z</time>
      </trkpt>
      <trkpt lat="44.24723" lon="3.6527">
        <ele>953.2</ele>
        <time>2022-08-10T10:27:05Z</time>
      </trkpt>
      <trkpt lat="44.24725" lon="3.6527">
        <ele>952.6</ele>
        <time>2022-08-10T10:27:07Z</time>
      </trkpt>
      <trkpt lat="44.24729" lon="3.65272">
        <ele>951.6</ele>
        <time>2022-08-10T10:27:15Z</time>
      </trkpt>
      <trkpt lat="44.2473" lon="3.65273">
        <ele>951.4</ele>
        <time>2022-08-10T10:27:16Z</time>
      </trkpt>
      <trkpt lat="44.24731" lon="3.65275">
        <ele>950.4</ele>
        <time>2022-08-10T10:27:20Z</time>
      </trkpt>
      <trkpt lat="44.24732" lon="3.65279">
        <ele>949.4</ele>
        <time>2022-08-10T10:27:28Z</time>
      </trkpt>
      <trkpt lat="44.24733" lon="3.65279">
        <ele>949.2</ele>
        <time>2022-08-10T10:27:29Z</time>
      </trkpt>
      <trkpt lat="44.24736" lon="3.65273">
        <ele>948</ele>
        <time>2022-08-10T10:27:37Z</time>
      </trkpt>
      <trkpt lat="44.24736" lon="3.65272">
        <ele>947.8</ele>
        <time>2022-08-10T10:27:39Z</time>
      </trkpt>
      <trkpt lat="44.24738" lon="3.65273">
        <ele>947</ele>
        <time>2022-08-10T10:27:44Z</time>
      </trkpt>
      <trkpt lat="44.24738" lon="3.65275">
        <ele>945.8</ele>
        <time>2022-08-10T10:27:51Z</time>
      </trkpt>
      <trkpt lat="44.24739" lon="3.65272">
        <ele>944.8</ele>
        <time>2022-08-10T10:27:58Z</time>
      </trkpt>
      <trkpt lat="44.24739" lon="3.65272">
        <ele>944</ele>
        <time>2022-08-10T10:28:04Z</time>
      </trkpt>
      <trkpt lat="44.24739" lon="3.65272">
        <ele>943.8</ele>
        <time>2022-08-10T10:28:05Z</time>
      </trkpt>
      <trkpt lat="44.24742" lon="3.65273">
        <ele>942.8</ele>
        <time>2022-08-10T10:28:12Z</time>
      </trkpt>
      <trkpt lat="44.24742" lon="3.65273">
        <ele>941.8</ele>
        <time>2022-08-10T10:28:19Z</time>
      </trkpt>
      <trkpt lat="44.24742" lon="3.65273">
        <ele>941.8</ele>
        <time>2022-08-10T10:28:20Z</time>
      </trkpt>
      <trkpt lat="44.24749" lon="3.65276">
        <ele>940.4</ele>
        <time>2022-08-10T10:28:29Z</time>
      </trkpt>
      <trkpt lat="44.24749" lon="3.65277">
        <ele>939.6</ele>
        <time>2022-08-10T10:28:35Z</time>
      </trkpt>
      <trkpt lat="44.24749" lon="3.65277">
        <ele>939.4</ele>
        <time>2022-08-10T10:28:39Z</time>
      </trkpt>
      <trkpt lat="44.2475" lon="3.65276">
        <ele>938.2</ele>
        <time>2022-08-10T10:28:50Z</time>
      </trkpt>
      <trkpt lat="44.2475" lon="3.65274">
        <ele>937.2</ele>
        <time>2022-08-10T10:29:00Z</time>
      </trkpt>
      <trkpt lat="44.2475" lon="3.65274">
        <ele>936.8</ele>
        <time>2022-08-10T10:29:02Z</time>
      </trkpt>
      <trkpt lat="44.24749" lon="3.6527">
        <ele>936.2</ele>
        <time>2022-08-10T10:29:08Z</time>
      </trkpt>
      <trkpt lat="44.24752" lon="3.65266">
        <ele>935.2</ele>
        <time>2022-08-10T10:29:14Z</time>
      </trkpt>
      <trkpt lat="44.24752" lon="3.65265">
        <ele>935</ele>
        <time>2022-08-10T10:29:15Z</time>
      </trkpt>
      <trkpt lat="44.24756" lon="3.65264">
        <ele>933.8</ele>
        <time>2022-08-10T10:29:22Z</time>
      </trkpt>
      <trkpt lat="44.24757" lon="3.6526">
        <ele>932.6</ele>
        <time>2022-08-10T10:29:28Z</time>
      </trkpt>
      <trkpt lat="44.24759" lon="3.65258">
        <ele>932.6</ele>
        <time>2022-08-10T10:29:29Z</time>
      </trkpt>
      <trkpt lat="44.24763" lon="3.65258">
        <ele>931.6</ele>
        <time>2022-08-10T10:29:34Z</time>
      </trkpt>
      <trkpt lat="44.24764" lon="3.65258">
        <ele>931.6</ele>
        <time>2022-08-10T10:29:35Z</time>
      </trkpt>
      <trkpt lat="44.24765" lon="3.65258">
        <ele>931.2</ele>
        <time>2022-08-10T10:29:37Z</time>
      </trkpt>
      <trkpt lat="44.2477" lon="3.65257">
        <ele>930.6</ele>
        <time>2022-08-10T10:29:41Z</time>
      </trkpt>
      <trkpt lat="44.24771" lon="3.65256">
        <ele>930.2</ele>
        <time>2022-08-10T10:29:44Z</time>
      </trkpt>
      <trkpt lat="44.24771" lon="3.65255">
        <ele>929.6</ele>
        <time>2022-08-10T10:29:46Z</time>
      </trkpt>
      <trkpt lat="44.24771" lon="3.65255">
        <ele>929.4</ele>
        <time>2022-08-10T10:29:47Z</time>
      </trkpt>
      <trkpt lat="44.24772" lon="3.65253">
        <ele>928.4</ele>
        <time>2022-08-10T10:29:55Z</time>
      </trkpt>
      <trkpt lat="44.24776" lon="3.65251">
        <ele>927.4</ele>
        <time>2022-08-10T10:30:01Z</time>
      </trkpt>
      <trkpt lat="44.24776" lon="3.65251">
        <ele>927.2</ele>
        <time>2022-08-10T10:30:02Z</time>
      </trkpt>
      <trkpt lat="44.24779" lon="3.65249">
        <ele>926.2</ele>
        <time>2022-08-10T10:30:10Z</time>
      </trkpt>
      <trkpt lat="44.24782" lon="3.65244">
        <ele>925</ele>
        <time>2022-08-10T10:30:18Z</time>
      </trkpt>
      <trkpt lat="44.24784" lon="3.65239">
        <ele>923.8</ele>
        <time>2022-08-10T10:30:26Z</time>
      </trkpt>
      <trkpt lat="44.24788" lon="3.65237">
        <ele>922.8</ele>
        <time>2022-08-10T10:30:35Z</time>
      </trkpt>
      <trkpt lat="44.2479" lon="3.65236">
        <ele>922.4</ele>
        <time>2022-08-10T10:30:39Z</time>
      </trkpt>
      <trkpt lat="44.24794" lon="3.65234">
        <ele>921.6</ele>
        <time>2022-08-10T10:30:44Z</time>
      </trkpt>
      <trkpt lat="44.24799" lon="3.65233">
        <ele>920.8</ele>
        <time>2022-08-10T10:30:49Z</time>
      </trkpt>
      <trkpt lat="44.248" lon="3.65233">
        <ele>920.8</ele>
        <time>2022-08-10T10:30:50Z</time>
      </trkpt>
      <trkpt lat="44.248" lon="3.65233">
        <ele>920.6</ele>
        <time>2022-08-10T10:30:51Z</time>
      </trkpt>
      <trkpt lat="44.248" lon="3.65232">
        <ele>920.2</ele>
        <time>2022-08-10T10:30:53Z</time>
      </trkpt>
      <trkpt lat="44.24801" lon="3.65233">
        <ele>920</ele>
        <time>2022-08-10T10:30:55Z</time>
      </trkpt>
      <trkpt lat="44.24803" lon="3.65233">
        <ele>919.8</ele>
        <time>2022-08-10T10:31:02Z</time>
      </trkpt>
      <trkpt lat="44.24807" lon="3.6523">
        <ele>919.6</ele>
        <time>2022-08-10T10:31:11Z</time>
      </trkpt>
      <trkpt lat="44.24808" lon="3.65229">
        <ele>919.4</ele>
        <time>2022-08-10T10:31:12Z</time>
      </trkpt>
      <trkpt lat="44.24809" lon="3.65219">
        <ele>919.6</ele>
        <time>2022-08-10T10:31:23Z</time>
      </trkpt>
      <trkpt lat="44.24809" lon="3.65218">
        <ele>919.6</ele>
        <time>2022-08-10T10:31:24Z</time>
      </trkpt>
      <trkpt lat="44.24809" lon="3.65212">
        <ele>919.4</ele>
        <time>2022-08-10T10:31:29Z</time>
      </trkpt>
      <trkpt lat="44.24805" lon="3.652">
        <ele>919.2</ele>
        <time>2022-08-10T10:31:40Z</time>
      </trkpt>
      <trkpt lat="44.24803" lon="3.65195">
        <ele>919.2</ele>
        <time>2022-08-10T10:31:44Z</time>
      </trkpt>
      <trkpt lat="44.24797" lon="3.65179">
        <ele>920</ele>
        <time>2022-08-10T10:31:55Z</time>
      </trkpt>
      <trkpt lat="44.24784" lon="3.65171">
        <ele>919.6</ele>
        <time>2022-08-10T10:32:07Z</time>
      </trkpt>
      <trkpt lat="44.24771" lon="3.65163">
        <ele>919</ele>
        <time>2022-08-10T10:32:19Z</time>
      </trkpt>
      <trkpt lat="44.24766" lon="3.6516">
        <ele>918.4</ele>
        <time>2022-08-10T10:32:24Z</time>
      </trkpt>
      <trkpt lat="44.24764" lon="3.65159">
        <ele>917.2</ele>
        <time>2022-08-10T10:32:27Z</time>
      </trkpt>
      <trkpt lat="44.24759" lon="3.65156">
        <ele>916.4</ele>
        <time>2022-08-10T10:32:33Z</time>
      </trkpt>
      <trkpt lat="44.24754" lon="3.65153">
        <ele>916.2</ele>
        <time>2022-08-10T10:32:39Z</time>
      </trkpt>
      <trkpt lat="44.24748" lon="3.6515">
        <ele>914.8</ele>
        <time>2022-08-10T10:32:45Z</time>
      </trkpt>
      <trkpt lat="44.24746" lon="3.65148">
        <ele>914.6</ele>
        <time>2022-08-10T10:32:49Z</time>
      </trkpt>
      <trkpt lat="44.24741" lon="3.65141">
        <ele>913.8</ele>
        <time>2022-08-10T10:32:59Z</time>
      </trkpt>
      <trkpt lat="44.24739" lon="3.65139">
        <ele>913.2</ele>
        <time>2022-08-10T10:33:02Z</time>
      </trkpt>
      <trkpt lat="44.24736" lon="3.65129">
        <ele>912.8</ele>
        <time>2022-08-10T10:33:11Z</time>
      </trkpt>
      <trkpt lat="44.24736" lon="3.65126">
        <ele>912.4</ele>
        <time>2022-08-10T10:33:14Z</time>
      </trkpt>
      <trkpt lat="44.24736" lon="3.65125">
        <ele>912.4</ele>
        <time>2022-08-10T10:33:15Z</time>
      </trkpt>
      <trkpt lat="44.24738" lon="3.6512">
        <ele>912.4</ele>
        <time>2022-08-10T10:33:21Z</time>
      </trkpt>
      <trkpt lat="44.2474" lon="3.65115">
        <ele>912.4</ele>
        <time>2022-08-10T10:33:28Z</time>
      </trkpt>
      <trkpt lat="44.24738" lon="3.65112">
        <ele>911.6</ele>
        <time>2022-08-10T10:33:32Z</time>
      </trkpt>
      <trkpt lat="44.24736" lon="3.65113">
        <ele>910.4</ele>
        <time>2022-08-10T10:33:35Z</time>
      </trkpt>
      <trkpt lat="44.24736" lon="3.65114">
        <ele>910</ele>
        <time>2022-08-10T10:33:37Z</time>
      </trkpt>
      <trkpt lat="44.24727" lon="3.65121">
        <ele>911</ele>
        <time>2022-08-10T10:33:49Z</time>
      </trkpt>
      <trkpt lat="44.24725" lon="3.65121">
        <ele>911.4</ele>
        <time>2022-08-10T10:33:51Z</time>
      </trkpt>
      <trkpt lat="44.24715" lon="3.65128">
        <ele>911.6</ele>
        <time>2022-08-10T10:34:04Z</time>
      </trkpt>
      <trkpt lat="44.24697" lon="3.65135">
        <ele>911.2</ele>
        <time>2022-08-10T10:34:20Z</time>
      </trkpt>
      <trkpt lat="44.24696" lon="3.65135">
        <ele>911</ele>
        <time>2022-08-10T10:34:21Z</time>
      </trkpt>
      <trkpt lat="44.24691" lon="3.65136">
        <ele>910.4</ele>
        <time>2022-08-10T10:34:25Z</time>
      </trkpt>
      <trkpt lat="44.2469" lon="3.65137">
        <ele>910.2</ele>
        <time>2022-08-10T10:34:28Z</time>
      </trkpt>
      <trkpt lat="44.2469" lon="3.65137">
        <ele>910</ele>
        <time>2022-08-10T10:34:30Z</time>
      </trkpt>
      <trkpt lat="44.24684" lon="3.65137">
        <ele>910.2</ele>
        <time>2022-08-10T10:34:40Z</time>
      </trkpt>
      <trkpt lat="44.24685" lon="3.65132">
        <ele>909.8</ele>
        <time>2022-08-10T10:34:47Z</time>
      </trkpt>
      <trkpt lat="44.24681" lon="3.65136">
        <ele>910.8</ele>
        <time>2022-08-10T10:34:56Z</time>
      </trkpt>
      <trkpt lat="44.24675" lon="3.6514">
        <ele>910.6</ele>
        <time>2022-08-10T10:35:07Z</time>
      </trkpt>
      <trkpt lat="44.24674" lon="3.6514">
        <ele>910.6</ele>
        <time>2022-08-10T10:35:08Z</time>
      </trkpt>
      <trkpt lat="44.24672" lon="3.65141">
        <ele>910.6</ele>
        <time>2022-08-10T10:35:09Z</time>
      </trkpt>
      <trkpt lat="44.24663" lon="3.65145">
        <ele>910.4</ele>
        <time>2022-08-10T10:35:18Z</time>
      </trkpt>
      <trkpt lat="44.24647" lon="3.65144">
        <ele>910.2</ele>
        <time>2022-08-10T10:35:31Z</time>
      </trkpt>
      <trkpt lat="44.24643" lon="3.65147">
        <ele>909.4</ele>
        <time>2022-08-10T10:35:39Z</time>
      </trkpt>
      <trkpt lat="44.24636" lon="3.65149">
        <ele>908.6</ele>
        <time>2022-08-10T10:35:46Z</time>
      </trkpt>
      <trkpt lat="44.24634" lon="3.65149">
        <ele>908.2</ele>
        <time>2022-08-10T10:35:48Z</time>
      </trkpt>
      <trkpt lat="44.24627" lon="3.65152">
        <ele>907</ele>
        <time>2022-08-10T10:35:59Z</time>
      </trkpt>
      <trkpt lat="44.24625" lon="3.65152">
        <ele>907</ele>
        <time>2022-08-10T10:36:02Z</time>
      </trkpt>
      <trkpt lat="44.24625" lon="3.65152">
        <ele>907</ele>
        <time>2022-08-10T10:36:03Z</time>
      </trkpt>
    </trkseg>
  </trk>
</gpx>